<?xml version="1.0" encoding="utf-8"?>
<gpx xmlns:xsi="http://www.w3.org/2001/XMLSchema-instance" xmlns:xsd="http://www.w3.org/2001/XMLSchema" version="1.1" creator="Shapelink.com" xmlns="http://www.topografix.com/GPX/1/1" xmlns:gpxtpx="http://www.garmin.com/xmlschemas/TrackPointExtension/v1">
  <metadata>
    <name>Kører 5.15 km, 2012-04-04</name>
    <desc></desc>
    <author><name>Stefan Östlund</name></author> 
    <time>2012-04-04T21:26:12Z</time>
  </metadata>
  <trk>
    <name>Kører 5.15 km, 2012-04-04</name>
    <trkseg>
      <trkpt lat="59.9840552" lon="15.8286671">
        <ele>158.274</ele>
        <time>2012-04-04T21:26:12Z</time>
      </trkpt>
      <trkpt lat="59.9840539" lon="15.8286538">
        <ele>157.313</ele>
        <time>2012-04-04T21:26:13Z</time>
      </trkpt>
      <trkpt lat="59.9840649" lon="15.8283937">
        <ele>151.064</ele>
        <time>2012-04-04T21:26:19Z</time>
      </trkpt>
      <trkpt lat="59.9840751" lon="15.8281172">
        <ele>147.219</ele>
        <time>2012-04-04T21:26:25Z</time>
      </trkpt>
      <trkpt lat="59.9839839" lon="15.8279133">
        <ele>143.374</ele>
        <time>2012-04-04T21:26:31Z</time>
      </trkpt>
      <trkpt lat="59.9838658" lon="15.8278067">
        <ele>142.412</ele>
        <time>2012-04-04T21:26:38Z</time>
      </trkpt>
      <trkpt lat="59.9837261" lon="15.8276473">
        <ele>143.854</ele>
        <time>2012-04-04T21:26:44Z</time>
      </trkpt>
      <trkpt lat="59.9836169" lon="15.8274917">
        <ele>142.893</ele>
        <time>2012-04-04T21:26:49Z</time>
      </trkpt>
      <trkpt lat="59.983482" lon="15.8272795">
        <ele>141.451</ele>
        <time>2012-04-04T21:26:56Z</time>
      </trkpt>
      <trkpt lat="59.9835509" lon="15.8269971">
        <ele>122.705</ele>
        <time>2012-04-04T21:27:01Z</time>
      </trkpt>
      <trkpt lat="59.9836721" lon="15.8267646">
        <ele>113.573</ele>
        <time>2012-04-04T21:27:07Z</time>
      </trkpt>
      <trkpt lat="59.9837846" lon="15.8264128">
        <ele>102.518</ele>
        <time>2012-04-04T21:27:14Z</time>
      </trkpt>
      <trkpt lat="59.9839032" lon="15.8259554">
        <ele>90.9819</ele>
        <time>2012-04-04T21:27:21Z</time>
      </trkpt>
      <trkpt lat="59.9840494" lon="15.8255036">
        <ele>84.7334</ele>
        <time>2012-04-04T21:27:28Z</time>
      </trkpt>
      <trkpt lat="59.9842331" lon="15.8252313">
        <ele>85.6946</ele>
        <time>2012-04-04T21:27:34Z</time>
      </trkpt>
      <trkpt lat="59.9844072" lon="15.8250011">
        <ele>81.3688</ele>
        <time>2012-04-04T21:27:40Z</time>
      </trkpt>
      <trkpt lat="59.9845431" lon="15.8247695">
        <ele>76.5621</ele>
        <time>2012-04-04T21:27:46Z</time>
      </trkpt>
      <trkpt lat="59.9846901" lon="15.8244966">
        <ele>71.7555</ele>
        <time>2012-04-04T21:27:53Z</time>
      </trkpt>
      <trkpt lat="59.9848299" lon="15.8242714">
        <ele>67.9103</ele>
        <time>2012-04-04T21:27:59Z</time>
      </trkpt>
      <trkpt lat="59.9850217" lon="15.8242023">
        <ele>65.9877</ele>
        <time>2012-04-04T21:28:05Z</time>
      </trkpt>
      <trkpt lat="59.9851544" lon="15.824251">
        <ele>64.0651</ele>
        <time>2012-04-04T21:28:10Z</time>
      </trkpt>
      <trkpt lat="59.9853245" lon="15.8242616">
        <ele>60.7003</ele>
        <time>2012-04-04T21:28:17Z</time>
      </trkpt>
      <trkpt lat="59.9854759" lon="15.8242822">
        <ele>56.3745</ele>
        <time>2012-04-04T21:28:23Z</time>
      </trkpt>
      <trkpt lat="59.9855909" lon="15.824293">
        <ele>54.9324</ele>
        <time>2012-04-04T21:28:29Z</time>
      </trkpt>
      <trkpt lat="59.9856608" lon="15.8242316">
        <ele>55.8938</ele>
        <time>2012-04-04T21:28:33Z</time>
      </trkpt>
      <trkpt lat="59.9857468" lon="15.8240947">
        <ele>55.8938</ele>
        <time>2012-04-04T21:28:37Z</time>
      </trkpt>
      <trkpt lat="59.9858255" lon="15.8238899">
        <ele>56.3745</ele>
        <time>2012-04-04T21:28:42Z</time>
      </trkpt>
      <trkpt lat="59.985833" lon="15.8238361">
        <ele>56.3745</ele>
        <time>2012-04-04T21:28:43Z</time>
      </trkpt>
      <trkpt lat="59.9859091" lon="15.8235659">
        <ele>55.4131</ele>
        <time>2012-04-04T21:28:49Z</time>
      </trkpt>
      <trkpt lat="59.9859784" lon="15.8233916">
        <ele>54.9324</ele>
        <time>2012-04-04T21:28:53Z</time>
      </trkpt>
      <trkpt lat="59.9860431" lon="15.823194">
        <ele>55.4131</ele>
        <time>2012-04-04T21:28:58Z</time>
      </trkpt>
      <trkpt lat="59.9860873" lon="15.8229856">
        <ele>56.8551</ele>
        <time>2012-04-04T21:29:03Z</time>
      </trkpt>
      <trkpt lat="59.9861253" lon="15.8228089">
        <ele>56.3745</ele>
        <time>2012-04-04T21:29:07Z</time>
      </trkpt>
      <trkpt lat="59.9861616" lon="15.8225412">
        <ele>56.8551</ele>
        <time>2012-04-04T21:29:13Z</time>
      </trkpt>
      <trkpt lat="59.9861815" lon="15.8223118">
        <ele>56.8551</ele>
        <time>2012-04-04T21:29:18Z</time>
      </trkpt>
      <trkpt lat="59.9862078" lon="15.8220577">
        <ele>56.8551</ele>
        <time>2012-04-04T21:29:23Z</time>
      </trkpt>
      <trkpt lat="59.9862381" lon="15.8218046">
        <ele>55.4131</ele>
        <time>2012-04-04T21:29:28Z</time>
      </trkpt>
      <trkpt lat="59.9862581" lon="15.8215077">
        <ele>57.8165</ele>
        <time>2012-04-04T21:29:33Z</time>
      </trkpt>
      <trkpt lat="59.9862929" lon="15.8212248">
        <ele>62.1423</ele>
        <time>2012-04-04T21:29:38Z</time>
      </trkpt>
      <trkpt lat="59.986347" lon="15.8208634">
        <ele>64.5457</ele>
        <time>2012-04-04T21:29:45Z</time>
      </trkpt>
      <trkpt lat="59.9863928" lon="15.8206153">
        <ele>66.4683</ele>
        <time>2012-04-04T21:29:50Z</time>
      </trkpt>
      <trkpt lat="59.9864308" lon="15.8203579">
        <ele>68.3909</ele>
        <time>2012-04-04T21:29:55Z</time>
      </trkpt>
      <trkpt lat="59.9864304" lon="15.8203075">
        <ele>69.3523</ele>
        <time>2012-04-04T21:29:56Z</time>
      </trkpt>
      <trkpt lat="59.9864378" lon="15.820105">
        <ele>70.7942</ele>
        <time>2012-04-04T21:30:00Z</time>
      </trkpt>
      <trkpt lat="59.9864767" lon="15.8197807">
        <ele>75.1202</ele>
        <time>2012-04-04T21:30:06Z</time>
      </trkpt>
      <trkpt lat="59.9864788" lon="15.8195465">
        <ele>75.6008</ele>
        <time>2012-04-04T21:30:11Z</time>
      </trkpt>
      <trkpt lat="59.9864809" lon="15.8193022">
        <ele>78.004</ele>
        <time>2012-04-04T21:30:16Z</time>
      </trkpt>
      <trkpt lat="59.9864818" lon="15.8190705">
        <ele>81.8494</ele>
        <time>2012-04-04T21:30:21Z</time>
      </trkpt>
      <trkpt lat="59.9864892" lon="15.818816">
        <ele>84.7334</ele>
        <time>2012-04-04T21:30:26Z</time>
      </trkpt>
      <trkpt lat="59.9864782" lon="15.8185189">
        <ele>84.2527</ele>
        <time>2012-04-04T21:30:32Z</time>
      </trkpt>
      <trkpt lat="59.9865232" lon="15.818278">
        <ele>82.3301</ele>
        <time>2012-04-04T21:30:37Z</time>
      </trkpt>
      <trkpt lat="59.9865941" lon="15.8180663">
        <ele>78.9655</ele>
        <time>2012-04-04T21:30:42Z</time>
      </trkpt>
      <trkpt lat="59.9866732" lon="15.8178144">
        <ele>76.0814</ele>
        <time>2012-04-04T21:30:48Z</time>
      </trkpt>
      <trkpt lat="59.9867305" lon="15.8175343">
        <ele>74.6395</ele>
        <time>2012-04-04T21:30:54Z</time>
      </trkpt>
      <trkpt lat="59.9867528" lon="15.8172879">
        <ele>73.6782</ele>
        <time>2012-04-04T21:30:59Z</time>
      </trkpt>
      <trkpt lat="59.9867846" lon="15.8170219">
        <ele>77.5234</ele>
        <time>2012-04-04T21:31:04Z</time>
      </trkpt>
      <trkpt lat="59.986783" lon="15.816774">
        <ele>77.5234</ele>
        <time>2012-04-04T21:31:09Z</time>
      </trkpt>
      <trkpt lat="59.9867977" lon="15.8165081">
        <ele>81.3688</ele>
        <time>2012-04-04T21:31:14Z</time>
      </trkpt>
      <trkpt lat="59.9867982" lon="15.8164554">
        <ele>81.8494</ele>
        <time>2012-04-04T21:31:15Z</time>
        <extensions><gpxtpx:TrackPointExtension><gpxtpx:hr>111</gpxtpx:hr></gpxtpx:TrackPointExtension></extensions>
      </trkpt>
      <trkpt lat="59.9867999" lon="15.8164075">
        <ele>82.3301</ele>
        <time>2012-04-04T21:31:16Z</time>
        <extensions><gpxtpx:TrackPointExtension><gpxtpx:hr>96</gpxtpx:hr></gpxtpx:TrackPointExtension></extensions>
      </trkpt>
      <trkpt lat="59.9867989" lon="15.8163612">
        <ele>82.8108</ele>
        <time>2012-04-04T21:31:17Z</time>
        <extensions><gpxtpx:TrackPointExtension><gpxtpx:hr>85</gpxtpx:hr></gpxtpx:TrackPointExtension></extensions>
      </trkpt>
      <trkpt lat="59.986792" lon="15.8163106">
        <ele>83.2914</ele>
        <time>2012-04-04T21:31:18Z</time>
        <extensions><gpxtpx:TrackPointExtension><gpxtpx:hr>105</gpxtpx:hr></gpxtpx:TrackPointExtension></extensions>
      </trkpt>
      <trkpt lat="59.9867849" lon="15.8162654">
        <ele>83.2914</ele>
        <time>2012-04-04T21:31:19Z</time>
        <extensions><gpxtpx:TrackPointExtension><gpxtpx:hr>113</gpxtpx:hr></gpxtpx:TrackPointExtension></extensions>
      </trkpt>
      <trkpt lat="59.9867828" lon="15.8161817">
        <ele>83.772</ele>
        <time>2012-04-04T21:31:21Z</time>
        <extensions><gpxtpx:TrackPointExtension><gpxtpx:hr>123</gpxtpx:hr></gpxtpx:TrackPointExtension></extensions>
      </trkpt>
      <trkpt lat="59.986818" lon="15.8160827">
        <ele>84.2527</ele>
        <time>2012-04-04T21:31:24Z</time>
        <extensions><gpxtpx:TrackPointExtension><gpxtpx:hr>134</gpxtpx:hr></gpxtpx:TrackPointExtension></extensions>
      </trkpt>
      <trkpt lat="59.9868403" lon="15.8160626">
        <ele>84.7334</ele>
        <time>2012-04-04T21:31:25Z</time>
        <extensions><gpxtpx:TrackPointExtension><gpxtpx:hr>136</gpxtpx:hr></gpxtpx:TrackPointExtension></extensions>
      </trkpt>
      <trkpt lat="59.9869177" lon="15.8160063">
        <ele>86.1753</ele>
        <time>2012-04-04T21:31:28Z</time>
        <extensions><gpxtpx:TrackPointExtension><gpxtpx:hr>140</gpxtpx:hr></gpxtpx:TrackPointExtension></extensions>
      </trkpt>
      <trkpt lat="59.9869455" lon="15.8159919">
        <ele>86.656</ele>
        <time>2012-04-04T21:31:29Z</time>
        <extensions><gpxtpx:TrackPointExtension><gpxtpx:hr>146</gpxtpx:hr></gpxtpx:TrackPointExtension></extensions>
      </trkpt>
      <trkpt lat="59.9870321" lon="15.8159295">
        <ele>87.1366</ele>
        <time>2012-04-04T21:31:33Z</time>
        <extensions><gpxtpx:TrackPointExtension><gpxtpx:hr>151</gpxtpx:hr></gpxtpx:TrackPointExtension></extensions>
      </trkpt>
      <trkpt lat="59.9871401" lon="15.8158383">
        <ele>86.1753</ele>
        <time>2012-04-04T21:31:38Z</time>
        <extensions><gpxtpx:TrackPointExtension><gpxtpx:hr>153</gpxtpx:hr></gpxtpx:TrackPointExtension></extensions>
      </trkpt>
      <trkpt lat="59.9872559" lon="15.8157337">
        <ele>82.3301</ele>
        <time>2012-04-04T21:31:44Z</time>
        <extensions><gpxtpx:TrackPointExtension><gpxtpx:hr>157</gpxtpx:hr></gpxtpx:TrackPointExtension></extensions>
      </trkpt>
      <trkpt lat="59.9873604" lon="15.815656">
        <ele>80.4075</ele>
        <time>2012-04-04T21:31:49Z</time>
        <extensions><gpxtpx:TrackPointExtension><gpxtpx:hr>156</gpxtpx:hr></gpxtpx:TrackPointExtension></extensions>
      </trkpt>
      <trkpt lat="59.987483" lon="15.8155765">
        <ele>78.9655</ele>
        <time>2012-04-04T21:31:55Z</time>
        <extensions><gpxtpx:TrackPointExtension><gpxtpx:hr>156</gpxtpx:hr></gpxtpx:TrackPointExtension></extensions>
      </trkpt>
      <trkpt lat="59.9876029" lon="15.8154793">
        <ele>77.0428</ele>
        <time>2012-04-04T21:32:01Z</time>
        <extensions><gpxtpx:TrackPointExtension><gpxtpx:hr>156</gpxtpx:hr></gpxtpx:TrackPointExtension></extensions>
      </trkpt>
      <trkpt lat="59.9877478" lon="15.815369">
        <ele>75.6008</ele>
        <time>2012-04-04T21:32:07Z</time>
        <extensions><gpxtpx:TrackPointExtension><gpxtpx:hr>156</gpxtpx:hr></gpxtpx:TrackPointExtension></extensions>
      </trkpt>
      <trkpt lat="59.9879065" lon="15.8152616">
        <ele>76.5621</ele>
        <time>2012-04-04T21:32:13Z</time>
        <extensions><gpxtpx:TrackPointExtension><gpxtpx:hr>158</gpxtpx:hr></gpxtpx:TrackPointExtension></extensions>
      </trkpt>
      <trkpt lat="59.9881267" lon="15.815157">
        <ele>85.6946</ele>
        <time>2012-04-04T21:32:20Z</time>
        <extensions><gpxtpx:TrackPointExtension><gpxtpx:hr>157</gpxtpx:hr></gpxtpx:TrackPointExtension></extensions>
      </trkpt>
      <trkpt lat="59.9882446" lon="15.8151333">
        <ele>89.0593</ele>
        <time>2012-04-04T21:32:24Z</time>
        <extensions><gpxtpx:TrackPointExtension><gpxtpx:hr>159</gpxtpx:hr></gpxtpx:TrackPointExtension></extensions>
      </trkpt>
      <trkpt lat="59.9883762" lon="15.8149523">
        <ele>87.6172</ele>
        <time>2012-04-04T21:32:28Z</time>
        <extensions><gpxtpx:TrackPointExtension><gpxtpx:hr>159</gpxtpx:hr></gpxtpx:TrackPointExtension></extensions>
      </trkpt>
      <trkpt lat="59.9885247" lon="15.8147897">
        <ele>89.0593</ele>
        <time>2012-04-04T21:32:35Z</time>
        <extensions><gpxtpx:TrackPointExtension><gpxtpx:hr>159</gpxtpx:hr></gpxtpx:TrackPointExtension></extensions>
      </trkpt>
      <trkpt lat="59.9886494" lon="15.8146688">
        <ele>90.0206</ele>
        <time>2012-04-04T21:32:41Z</time>
        <extensions><gpxtpx:TrackPointExtension><gpxtpx:hr>161</gpxtpx:hr></gpxtpx:TrackPointExtension></extensions>
      </trkpt>
      <trkpt lat="59.9887695" lon="15.8146064">
        <ele>90.9819</ele>
        <time>2012-04-04T21:32:46Z</time>
        <extensions><gpxtpx:TrackPointExtension><gpxtpx:hr>157</gpxtpx:hr></gpxtpx:TrackPointExtension></extensions>
      </trkpt>
      <trkpt lat="59.9889544" lon="15.8144701">
        <ele>91.9432</ele>
        <time>2012-04-04T21:32:54Z</time>
        <extensions><gpxtpx:TrackPointExtension><gpxtpx:hr>155</gpxtpx:hr></gpxtpx:TrackPointExtension></extensions>
      </trkpt>
      <trkpt lat="59.989115" lon="15.8143664">
        <ele>90.9819</ele>
        <time>2012-04-04T21:33:01Z</time>
        <extensions><gpxtpx:TrackPointExtension><gpxtpx:hr>153</gpxtpx:hr></gpxtpx:TrackPointExtension></extensions>
      </trkpt>
      <trkpt lat="59.9892705" lon="15.8142499">
        <ele>88.5787</ele>
        <time>2012-04-04T21:33:08Z</time>
        <extensions><gpxtpx:TrackPointExtension><gpxtpx:hr>152</gpxtpx:hr></gpxtpx:TrackPointExtension></extensions>
      </trkpt>
      <trkpt lat="59.9894059" lon="15.8141117">
        <ele>85.6946</ele>
        <time>2012-04-04T21:33:14Z</time>
        <extensions><gpxtpx:TrackPointExtension><gpxtpx:hr>153</gpxtpx:hr></gpxtpx:TrackPointExtension></extensions>
      </trkpt>
      <trkpt lat="59.9895123" lon="15.8139836">
        <ele>83.772</ele>
        <time>2012-04-04T21:33:19Z</time>
        <extensions><gpxtpx:TrackPointExtension><gpxtpx:hr>154</gpxtpx:hr></gpxtpx:TrackPointExtension></extensions>
      </trkpt>
      <trkpt lat="59.9896572" lon="15.813892">
        <ele>85.214</ele>
        <time>2012-04-04T21:33:25Z</time>
        <extensions><gpxtpx:TrackPointExtension><gpxtpx:hr>153</gpxtpx:hr></gpxtpx:TrackPointExtension></extensions>
      </trkpt>
      <trkpt lat="59.9898055" lon="15.813809">
        <ele>86.656</ele>
        <time>2012-04-04T21:33:31Z</time>
        <extensions><gpxtpx:TrackPointExtension><gpxtpx:hr>153</gpxtpx:hr></gpxtpx:TrackPointExtension></extensions>
      </trkpt>
      <trkpt lat="59.9899793" lon="15.8136998">
        <ele>88.098</ele>
        <time>2012-04-04T21:33:38Z</time>
        <extensions><gpxtpx:TrackPointExtension><gpxtpx:hr>154</gpxtpx:hr></gpxtpx:TrackPointExtension></extensions>
      </trkpt>
      <trkpt lat="59.9901506" lon="15.8135987">
        <ele>91.4625</ele>
        <time>2012-04-04T21:33:44Z</time>
        <extensions><gpxtpx:TrackPointExtension><gpxtpx:hr>155</gpxtpx:hr></gpxtpx:TrackPointExtension></extensions>
      </trkpt>
      <trkpt lat="59.9903069" lon="15.8135066">
        <ele>92.9045</ele>
        <time>2012-04-04T21:33:50Z</time>
        <extensions><gpxtpx:TrackPointExtension><gpxtpx:hr>154</gpxtpx:hr></gpxtpx:TrackPointExtension></extensions>
      </trkpt>
      <trkpt lat="59.9904104" lon="15.8134258">
        <ele>93.3851</ele>
        <time>2012-04-04T21:33:55Z</time>
        <extensions><gpxtpx:TrackPointExtension><gpxtpx:hr>153</gpxtpx:hr></gpxtpx:TrackPointExtension></extensions>
      </trkpt>
      <trkpt lat="59.9905217" lon="15.8133144">
        <ele>92.424</ele>
        <time>2012-04-04T21:34:00Z</time>
        <extensions><gpxtpx:TrackPointExtension><gpxtpx:hr>152</gpxtpx:hr></gpxtpx:TrackPointExtension></extensions>
      </trkpt>
      <trkpt lat="59.9906562" lon="15.8132676">
        <ele>90.5013</ele>
        <time>2012-04-04T21:34:05Z</time>
        <extensions><gpxtpx:TrackPointExtension><gpxtpx:hr>151</gpxtpx:hr></gpxtpx:TrackPointExtension></extensions>
      </trkpt>
      <trkpt lat="59.9908191" lon="15.8131606">
        <ele>90.5013</ele>
        <time>2012-04-04T21:34:12Z</time>
        <extensions><gpxtpx:TrackPointExtension><gpxtpx:hr>152</gpxtpx:hr></gpxtpx:TrackPointExtension></extensions>
      </trkpt>
      <trkpt lat="59.9909664" lon="15.8130906">
        <ele>89.5399</ele>
        <time>2012-04-04T21:34:18Z</time>
        <extensions><gpxtpx:TrackPointExtension><gpxtpx:hr>154</gpxtpx:hr></gpxtpx:TrackPointExtension></extensions>
      </trkpt>
      <trkpt lat="59.9911125" lon="15.8130232">
        <ele>89.0593</ele>
        <time>2012-04-04T21:34:24Z</time>
        <extensions><gpxtpx:TrackPointExtension><gpxtpx:hr>155</gpxtpx:hr></gpxtpx:TrackPointExtension></extensions>
      </trkpt>
      <trkpt lat="59.9912888" lon="15.8129823">
        <ele>89.5399</ele>
        <time>2012-04-04T21:34:31Z</time>
        <extensions><gpxtpx:TrackPointExtension><gpxtpx:hr>155</gpxtpx:hr></gpxtpx:TrackPointExtension></extensions>
      </trkpt>
      <trkpt lat="59.991428" lon="15.8129141">
        <ele>89.5399</ele>
        <time>2012-04-04T21:34:37Z</time>
        <extensions><gpxtpx:TrackPointExtension><gpxtpx:hr>155</gpxtpx:hr></gpxtpx:TrackPointExtension></extensions>
      </trkpt>
      <trkpt lat="59.9915025" lon="15.8128915">
        <ele>90.0206</ele>
        <time>2012-04-04T21:34:40Z</time>
        <extensions><gpxtpx:TrackPointExtension><gpxtpx:hr>155</gpxtpx:hr></gpxtpx:TrackPointExtension></extensions>
      </trkpt>
      <trkpt lat="59.9915745" lon="15.813072">
        <ele>92.9045</ele>
        <time>2012-04-04T21:34:45Z</time>
        <extensions><gpxtpx:TrackPointExtension><gpxtpx:hr>154</gpxtpx:hr></gpxtpx:TrackPointExtension></extensions>
      </trkpt>
      <trkpt lat="59.9915911" lon="15.8133085">
        <ele>92.9045</ele>
        <time>2012-04-04T21:34:50Z</time>
        <extensions><gpxtpx:TrackPointExtension><gpxtpx:hr>155</gpxtpx:hr></gpxtpx:TrackPointExtension></extensions>
      </trkpt>
      <trkpt lat="59.9916147" lon="15.8136">
        <ele>94.8271</ele>
        <time>2012-04-04T21:34:56Z</time>
        <extensions><gpxtpx:TrackPointExtension><gpxtpx:hr>156</gpxtpx:hr></gpxtpx:TrackPointExtension></extensions>
      </trkpt>
      <trkpt lat="59.9916371" lon="15.813818">
        <ele>92.424</ele>
        <time>2012-04-04T21:35:01Z</time>
        <extensions><gpxtpx:TrackPointExtension><gpxtpx:hr>157</gpxtpx:hr></gpxtpx:TrackPointExtension></extensions>
      </trkpt>
      <trkpt lat="59.9916513" lon="15.8138971">
        <ele>91.9432</ele>
        <time>2012-04-04T21:35:03Z</time>
        <extensions><gpxtpx:TrackPointExtension><gpxtpx:hr>157</gpxtpx:hr></gpxtpx:TrackPointExtension></extensions>
      </trkpt>
      <trkpt lat="59.9916729" lon="15.8142747">
        <ele>90.9819</ele>
        <time>2012-04-04T21:35:10Z</time>
        <extensions><gpxtpx:TrackPointExtension><gpxtpx:hr>157</gpxtpx:hr></gpxtpx:TrackPointExtension></extensions>
      </trkpt>
      <trkpt lat="59.9916926" lon="15.8145358">
        <ele>91.4625</ele>
        <time>2012-04-04T21:35:15Z</time>
        <extensions><gpxtpx:TrackPointExtension><gpxtpx:hr>157</gpxtpx:hr></gpxtpx:TrackPointExtension></extensions>
      </trkpt>
      <trkpt lat="59.9916853" lon="15.814772">
        <ele>92.9045</ele>
        <time>2012-04-04T21:35:20Z</time>
        <extensions><gpxtpx:TrackPointExtension><gpxtpx:hr>157</gpxtpx:hr></gpxtpx:TrackPointExtension></extensions>
      </trkpt>
      <trkpt lat="59.9916838" lon="15.8150182">
        <ele>93.3851</ele>
        <time>2012-04-04T21:35:25Z</time>
        <extensions><gpxtpx:TrackPointExtension><gpxtpx:hr>157</gpxtpx:hr></gpxtpx:TrackPointExtension></extensions>
      </trkpt>
      <trkpt lat="59.9916815" lon="15.8152571">
        <ele>92.424</ele>
        <time>2012-04-04T21:35:30Z</time>
        <extensions><gpxtpx:TrackPointExtension><gpxtpx:hr>157</gpxtpx:hr></gpxtpx:TrackPointExtension></extensions>
      </trkpt>
      <trkpt lat="59.9916722" lon="15.8155496">
        <ele>91.4625</ele>
        <time>2012-04-04T21:35:36Z</time>
        <extensions><gpxtpx:TrackPointExtension><gpxtpx:hr>157</gpxtpx:hr></gpxtpx:TrackPointExtension></extensions>
      </trkpt>
      <trkpt lat="59.9916754" lon="15.8156683">
        <ele>93.3851</ele>
        <time>2012-04-04T21:35:38Z</time>
        <extensions><gpxtpx:TrackPointExtension><gpxtpx:hr>157</gpxtpx:hr></gpxtpx:TrackPointExtension></extensions>
      </trkpt>
      <trkpt lat="59.9916728" lon="15.8159465">
        <ele>92.9045</ele>
        <time>2012-04-04T21:35:44Z</time>
        <extensions><gpxtpx:TrackPointExtension><gpxtpx:hr>158</gpxtpx:hr></gpxtpx:TrackPointExtension></extensions>
      </trkpt>
      <trkpt lat="59.9916406" lon="15.8162158">
        <ele>88.5787</ele>
        <time>2012-04-04T21:35:49Z</time>
        <extensions><gpxtpx:TrackPointExtension><gpxtpx:hr>158</gpxtpx:hr></gpxtpx:TrackPointExtension></extensions>
      </trkpt>
      <trkpt lat="59.9916008" lon="15.8165245">
        <ele>84.2527</ele>
        <time>2012-04-04T21:35:55Z</time>
        <extensions><gpxtpx:TrackPointExtension><gpxtpx:hr>157</gpxtpx:hr></gpxtpx:TrackPointExtension></extensions>
      </trkpt>
      <trkpt lat="59.9915575" lon="15.8168161">
        <ele>81.3688</ele>
        <time>2012-04-04T21:36:01Z</time>
        <extensions><gpxtpx:TrackPointExtension><gpxtpx:hr>157</gpxtpx:hr></gpxtpx:TrackPointExtension></extensions>
      </trkpt>
      <trkpt lat="59.9915351" lon="15.8170691">
        <ele>82.8108</ele>
        <time>2012-04-04T21:36:06Z</time>
        <extensions><gpxtpx:TrackPointExtension><gpxtpx:hr>156</gpxtpx:hr></gpxtpx:TrackPointExtension></extensions>
      </trkpt>
      <trkpt lat="59.9915034" lon="15.8173584">
        <ele>83.2914</ele>
        <time>2012-04-04T21:36:12Z</time>
        <extensions><gpxtpx:TrackPointExtension><gpxtpx:hr>155</gpxtpx:hr></gpxtpx:TrackPointExtension></extensions>
      </trkpt>
      <trkpt lat="59.9914751" lon="15.8176532">
        <ele>83.772</ele>
        <time>2012-04-04T21:36:18Z</time>
        <extensions><gpxtpx:TrackPointExtension><gpxtpx:hr>155</gpxtpx:hr></gpxtpx:TrackPointExtension></extensions>
      </trkpt>
      <trkpt lat="59.9914517" lon="15.8179517">
        <ele>85.214</ele>
        <time>2012-04-04T21:36:24Z</time>
        <extensions><gpxtpx:TrackPointExtension><gpxtpx:hr>154</gpxtpx:hr></gpxtpx:TrackPointExtension></extensions>
      </trkpt>
      <trkpt lat="59.9914354" lon="15.8182066">
        <ele>86.1753</ele>
        <time>2012-04-04T21:36:29Z</time>
        <extensions><gpxtpx:TrackPointExtension><gpxtpx:hr>154</gpxtpx:hr></gpxtpx:TrackPointExtension></extensions>
      </trkpt>
      <trkpt lat="59.9914251" lon="15.8184919">
        <ele>86.1753</ele>
        <time>2012-04-04T21:36:35Z</time>
        <extensions><gpxtpx:TrackPointExtension><gpxtpx:hr>155</gpxtpx:hr></gpxtpx:TrackPointExtension></extensions>
      </trkpt>
      <trkpt lat="59.9914246" lon="15.8187541">
        <ele>86.656</ele>
        <time>2012-04-04T21:36:40Z</time>
        <extensions><gpxtpx:TrackPointExtension><gpxtpx:hr>155</gpxtpx:hr></gpxtpx:TrackPointExtension></extensions>
      </trkpt>
      <trkpt lat="59.9914179" lon="15.8189632">
        <ele>89.5399</ele>
        <time>2012-04-04T21:36:44Z</time>
        <extensions><gpxtpx:TrackPointExtension><gpxtpx:hr>156</gpxtpx:hr></gpxtpx:TrackPointExtension></extensions>
      </trkpt>
      <trkpt lat="59.9914259" lon="15.8192695">
        <ele>89.5399</ele>
        <time>2012-04-04T21:36:50Z</time>
        <extensions><gpxtpx:TrackPointExtension><gpxtpx:hr>156</gpxtpx:hr></gpxtpx:TrackPointExtension></extensions>
      </trkpt>
      <trkpt lat="59.9914266" lon="15.819557">
        <ele>88.5787</ele>
        <time>2012-04-04T21:36:56Z</time>
        <extensions><gpxtpx:TrackPointExtension><gpxtpx:hr>157</gpxtpx:hr></gpxtpx:TrackPointExtension></extensions>
      </trkpt>
      <trkpt lat="59.9914337" lon="15.8198071">
        <ele>89.5399</ele>
        <time>2012-04-04T21:37:01Z</time>
        <extensions><gpxtpx:TrackPointExtension><gpxtpx:hr>156</gpxtpx:hr></gpxtpx:TrackPointExtension></extensions>
      </trkpt>
      <trkpt lat="59.9914354" lon="15.8200563">
        <ele>90.0206</ele>
        <time>2012-04-04T21:37:06Z</time>
        <extensions><gpxtpx:TrackPointExtension><gpxtpx:hr>155</gpxtpx:hr></gpxtpx:TrackPointExtension></extensions>
      </trkpt>
      <trkpt lat="59.9914314" lon="15.8203432">
        <ele>90.5013</ele>
        <time>2012-04-04T21:37:12Z</time>
        <extensions><gpxtpx:TrackPointExtension><gpxtpx:hr>155</gpxtpx:hr></gpxtpx:TrackPointExtension></extensions>
      </trkpt>
      <trkpt lat="59.9914346" lon="15.8206847">
        <ele>93.8658</ele>
        <time>2012-04-04T21:37:18Z</time>
        <extensions><gpxtpx:TrackPointExtension><gpxtpx:hr>154</gpxtpx:hr></gpxtpx:TrackPointExtension></extensions>
      </trkpt>
      <trkpt lat="59.9914232" lon="15.820942">
        <ele>95.3077</ele>
        <time>2012-04-04T21:37:23Z</time>
        <extensions><gpxtpx:TrackPointExtension><gpxtpx:hr>154</gpxtpx:hr></gpxtpx:TrackPointExtension></extensions>
      </trkpt>
      <trkpt lat="59.9914191" lon="15.8213037">
        <ele>99.6338</ele>
        <time>2012-04-04T21:37:30Z</time>
        <extensions><gpxtpx:TrackPointExtension><gpxtpx:hr>155</gpxtpx:hr></gpxtpx:TrackPointExtension></extensions>
      </trkpt>
      <trkpt lat="59.9913999" lon="15.8215751">
        <ele>96.7499</ele>
        <time>2012-04-04T21:37:36Z</time>
        <extensions><gpxtpx:TrackPointExtension><gpxtpx:hr>155</gpxtpx:hr></gpxtpx:TrackPointExtension></extensions>
      </trkpt>
      <trkpt lat="59.991374" lon="15.8218383">
        <ele>92.424</ele>
        <time>2012-04-04T21:37:42Z</time>
        <extensions><gpxtpx:TrackPointExtension><gpxtpx:hr>156</gpxtpx:hr></gpxtpx:TrackPointExtension></extensions>
      </trkpt>
      <trkpt lat="59.9913548" lon="15.8220902">
        <ele>90.5013</ele>
        <time>2012-04-04T21:37:47Z</time>
        <extensions><gpxtpx:TrackPointExtension><gpxtpx:hr>156</gpxtpx:hr></gpxtpx:TrackPointExtension></extensions>
      </trkpt>
      <trkpt lat="59.9913181" lon="15.8224063">
        <ele>90.9819</ele>
        <time>2012-04-04T21:37:53Z</time>
        <extensions><gpxtpx:TrackPointExtension><gpxtpx:hr>154</gpxtpx:hr></gpxtpx:TrackPointExtension></extensions>
      </trkpt>
      <trkpt lat="59.9912953" lon="15.8226745">
        <ele>90.0206</ele>
        <time>2012-04-04T21:37:58Z</time>
        <extensions><gpxtpx:TrackPointExtension><gpxtpx:hr>152</gpxtpx:hr></gpxtpx:TrackPointExtension></extensions>
      </trkpt>
      <trkpt lat="59.9913029" lon="15.8230001">
        <ele>90.9819</ele>
        <time>2012-04-04T21:38:04Z</time>
        <extensions><gpxtpx:TrackPointExtension><gpxtpx:hr>152</gpxtpx:hr></gpxtpx:TrackPointExtension></extensions>
      </trkpt>
      <trkpt lat="59.9913129" lon="15.8230847">
        <ele>91.9432</ele>
        <time>2012-04-04T21:38:06Z</time>
        <extensions><gpxtpx:TrackPointExtension><gpxtpx:hr>153</gpxtpx:hr></gpxtpx:TrackPointExtension></extensions>
      </trkpt>
      <trkpt lat="59.991271" lon="15.8232909">
        <ele>90.9819</ele>
        <time>2012-04-04T21:38:11Z</time>
        <extensions><gpxtpx:TrackPointExtension><gpxtpx:hr>157</gpxtpx:hr></gpxtpx:TrackPointExtension></extensions>
      </trkpt>
      <trkpt lat="59.9912659" lon="15.8233415">
        <ele>90.9819</ele>
        <time>2012-04-04T21:38:12Z</time>
        <extensions><gpxtpx:TrackPointExtension><gpxtpx:hr>157</gpxtpx:hr></gpxtpx:TrackPointExtension></extensions>
      </trkpt>
      <trkpt lat="59.9912614" lon="15.8237047">
        <ele>89.0593</ele>
        <time>2012-04-04T21:38:19Z</time>
        <extensions><gpxtpx:TrackPointExtension><gpxtpx:hr>158</gpxtpx:hr></gpxtpx:TrackPointExtension></extensions>
      </trkpt>
      <trkpt lat="59.9912911" lon="15.8240563">
        <ele>87.1366</ele>
        <time>2012-04-04T21:38:26Z</time>
        <extensions><gpxtpx:TrackPointExtension><gpxtpx:hr>156</gpxtpx:hr></gpxtpx:TrackPointExtension></extensions>
      </trkpt>
      <trkpt lat="59.991292" lon="15.8241958">
        <ele>86.656</ele>
        <time>2012-04-04T21:38:29Z</time>
        <extensions><gpxtpx:TrackPointExtension><gpxtpx:hr>156</gpxtpx:hr></gpxtpx:TrackPointExtension></extensions>
      </trkpt>
      <trkpt lat="59.9912781" lon="15.8243539">
        <ele>85.6946</ele>
        <time>2012-04-04T21:38:33Z</time>
        <extensions><gpxtpx:TrackPointExtension><gpxtpx:hr>155</gpxtpx:hr></gpxtpx:TrackPointExtension></extensions>
      </trkpt>
      <trkpt lat="59.9912488" lon="15.8247335">
        <ele>84.7334</ele>
        <time>2012-04-04T21:38:40Z</time>
        <extensions><gpxtpx:TrackPointExtension><gpxtpx:hr>156</gpxtpx:hr></gpxtpx:TrackPointExtension></extensions>
      </trkpt>
      <trkpt lat="59.9912481" lon="15.8250241">
        <ele>84.7334</ele>
        <time>2012-04-04T21:38:46Z</time>
        <extensions><gpxtpx:TrackPointExtension><gpxtpx:hr>157</gpxtpx:hr></gpxtpx:TrackPointExtension></extensions>
      </trkpt>
      <trkpt lat="59.9912108" lon="15.8253067">
        <ele>85.214</ele>
        <time>2012-04-04T21:38:52Z</time>
        <extensions><gpxtpx:TrackPointExtension><gpxtpx:hr>157</gpxtpx:hr></gpxtpx:TrackPointExtension></extensions>
      </trkpt>
      <trkpt lat="59.991175" lon="15.8254452">
        <ele>85.6946</ele>
        <time>2012-04-04T21:38:55Z</time>
        <extensions><gpxtpx:TrackPointExtension><gpxtpx:hr>157</gpxtpx:hr></gpxtpx:TrackPointExtension></extensions>
      </trkpt>
      <trkpt lat="59.9911995" lon="15.8256147">
        <ele>85.6946</ele>
        <time>2012-04-04T21:39:00Z</time>
        <extensions><gpxtpx:TrackPointExtension><gpxtpx:hr>156</gpxtpx:hr></gpxtpx:TrackPointExtension></extensions>
      </trkpt>
      <trkpt lat="59.9912741" lon="15.8256638">
        <ele>87.6172</ele>
        <time>2012-04-04T21:39:03Z</time>
        <extensions><gpxtpx:TrackPointExtension><gpxtpx:hr>156</gpxtpx:hr></gpxtpx:TrackPointExtension></extensions>
      </trkpt>
      <trkpt lat="59.9914824" lon="15.8257263">
        <ele>92.424</ele>
        <time>2012-04-04T21:39:11Z</time>
        <extensions><gpxtpx:TrackPointExtension><gpxtpx:hr>158</gpxtpx:hr></gpxtpx:TrackPointExtension></extensions>
      </trkpt>
      <trkpt lat="59.9916367" lon="15.8257669">
        <ele>94.8271</ele>
        <time>2012-04-04T21:39:17Z</time>
        <extensions><gpxtpx:TrackPointExtension><gpxtpx:hr>160</gpxtpx:hr></gpxtpx:TrackPointExtension></extensions>
      </trkpt>
      <trkpt lat="59.9917615" lon="15.8257924">
        <ele>95.7885</ele>
        <time>2012-04-04T21:39:22Z</time>
        <extensions><gpxtpx:TrackPointExtension><gpxtpx:hr>161</gpxtpx:hr></gpxtpx:TrackPointExtension></extensions>
      </trkpt>
      <trkpt lat="59.9918827" lon="15.825825">
        <ele>98.1919</ele>
        <time>2012-04-04T21:39:27Z</time>
        <extensions><gpxtpx:TrackPointExtension><gpxtpx:hr>161</gpxtpx:hr></gpxtpx:TrackPointExtension></extensions>
      </trkpt>
      <trkpt lat="59.9920184" lon="15.8258907">
        <ele>98.6725</ele>
        <time>2012-04-04T21:39:33Z</time>
        <extensions><gpxtpx:TrackPointExtension><gpxtpx:hr>162</gpxtpx:hr></gpxtpx:TrackPointExtension></extensions>
      </trkpt>
      <trkpt lat="59.9921567" lon="15.8259792">
        <ele>98.6725</ele>
        <time>2012-04-04T21:39:39Z</time>
        <extensions><gpxtpx:TrackPointExtension><gpxtpx:hr>162</gpxtpx:hr></gpxtpx:TrackPointExtension></extensions>
      </trkpt>
      <trkpt lat="59.9922774" lon="15.8260959">
        <ele>99.6338</ele>
        <time>2012-04-04T21:39:44Z</time>
        <extensions><gpxtpx:TrackPointExtension><gpxtpx:hr>162</gpxtpx:hr></gpxtpx:TrackPointExtension></extensions>
      </trkpt>
      <trkpt lat="59.9923992" lon="15.8262155">
        <ele>101.076</ele>
        <time>2012-04-04T21:39:49Z</time>
        <extensions><gpxtpx:TrackPointExtension><gpxtpx:hr>162</gpxtpx:hr></gpxtpx:TrackPointExtension></extensions>
      </trkpt>
      <trkpt lat="59.9925473" lon="15.8264163">
        <ele>102.518</ele>
        <time>2012-04-04T21:39:56Z</time>
        <extensions><gpxtpx:TrackPointExtension><gpxtpx:hr>161</gpxtpx:hr></gpxtpx:TrackPointExtension></extensions>
      </trkpt>
      <trkpt lat="59.9926805" lon="15.8266545">
        <ele>103.479</ele>
        <time>2012-04-04T21:40:03Z</time>
        <extensions><gpxtpx:TrackPointExtension><gpxtpx:hr>161</gpxtpx:hr></gpxtpx:TrackPointExtension></extensions>
      </trkpt>
      <trkpt lat="59.9927654" lon="15.8268348">
        <ele>103.479</ele>
        <time>2012-04-04T21:40:08Z</time>
        <extensions><gpxtpx:TrackPointExtension><gpxtpx:hr>161</gpxtpx:hr></gpxtpx:TrackPointExtension></extensions>
      </trkpt>
      <trkpt lat="59.9928308" lon="15.8269738">
        <ele>103.96</ele>
        <time>2012-04-04T21:40:12Z</time>
        <extensions><gpxtpx:TrackPointExtension><gpxtpx:hr>161</gpxtpx:hr></gpxtpx:TrackPointExtension></extensions>
      </trkpt>
      <trkpt lat="59.9928022" lon="15.8271461">
        <ele>103.479</ele>
        <time>2012-04-04T21:40:17Z</time>
        <extensions><gpxtpx:TrackPointExtension><gpxtpx:hr>161</gpxtpx:hr></gpxtpx:TrackPointExtension></extensions>
      </trkpt>
      <trkpt lat="59.9926446" lon="15.8273433">
        <ele>103.479</ele>
        <time>2012-04-04T21:40:24Z</time>
        <extensions><gpxtpx:TrackPointExtension><gpxtpx:hr>162</gpxtpx:hr></gpxtpx:TrackPointExtension></extensions>
      </trkpt>
      <trkpt lat="59.9925008" lon="15.8274995">
        <ele>103.96</ele>
        <time>2012-04-04T21:40:30Z</time>
        <extensions><gpxtpx:TrackPointExtension><gpxtpx:hr>162</gpxtpx:hr></gpxtpx:TrackPointExtension></extensions>
      </trkpt>
      <trkpt lat="59.9923682" lon="15.8276593">
        <ele>104.921</ele>
        <time>2012-04-04T21:40:36Z</time>
        <extensions><gpxtpx:TrackPointExtension><gpxtpx:hr>163</gpxtpx:hr></gpxtpx:TrackPointExtension></extensions>
      </trkpt>
      <trkpt lat="59.9922318" lon="15.8278498">
        <ele>103.96</ele>
        <time>2012-04-04T21:40:43Z</time>
        <extensions><gpxtpx:TrackPointExtension><gpxtpx:hr>162</gpxtpx:hr></gpxtpx:TrackPointExtension></extensions>
      </trkpt>
      <trkpt lat="59.9921386" lon="15.8279539">
        <ele>103.479</ele>
        <time>2012-04-04T21:40:47Z</time>
        <extensions><gpxtpx:TrackPointExtension><gpxtpx:hr>162</gpxtpx:hr></gpxtpx:TrackPointExtension></extensions>
      </trkpt>
      <trkpt lat="59.992034" lon="15.828077">
        <ele>104.921</ele>
        <time>2012-04-04T21:40:52Z</time>
        <extensions><gpxtpx:TrackPointExtension><gpxtpx:hr>162</gpxtpx:hr></gpxtpx:TrackPointExtension></extensions>
      </trkpt>
      <trkpt lat="59.991907" lon="15.8282434">
        <ele>103.96</ele>
        <time>2012-04-04T21:40:58Z</time>
        <extensions><gpxtpx:TrackPointExtension><gpxtpx:hr>163</gpxtpx:hr></gpxtpx:TrackPointExtension></extensions>
      </trkpt>
      <trkpt lat="59.9918029" lon="15.828372">
        <ele>103.479</ele>
        <time>2012-04-04T21:41:03Z</time>
        <extensions><gpxtpx:TrackPointExtension><gpxtpx:hr>163</gpxtpx:hr></gpxtpx:TrackPointExtension></extensions>
      </trkpt>
      <trkpt lat="59.9916953" lon="15.8284916">
        <ele>102.998</ele>
        <time>2012-04-04T21:41:08Z</time>
        <extensions><gpxtpx:TrackPointExtension><gpxtpx:hr>164</gpxtpx:hr></gpxtpx:TrackPointExtension></extensions>
      </trkpt>
      <trkpt lat="59.9916025" lon="15.8286362">
        <ele>101.556</ele>
        <time>2012-04-04T21:41:13Z</time>
        <extensions><gpxtpx:TrackPointExtension><gpxtpx:hr>164</gpxtpx:hr></gpxtpx:TrackPointExtension></extensions>
      </trkpt>
      <trkpt lat="59.9914796" lon="15.8288801">
        <ele>100.595</ele>
        <time>2012-04-04T21:41:20Z</time>
        <extensions><gpxtpx:TrackPointExtension><gpxtpx:hr>165</gpxtpx:hr></gpxtpx:TrackPointExtension></extensions>
      </trkpt>
      <trkpt lat="59.9913531" lon="15.8291106">
        <ele>101.076</ele>
        <time>2012-04-04T21:41:27Z</time>
        <extensions><gpxtpx:TrackPointExtension><gpxtpx:hr>164</gpxtpx:hr></gpxtpx:TrackPointExtension></extensions>
      </trkpt>
      <trkpt lat="59.991259" lon="15.8292785">
        <ele>100.595</ele>
        <time>2012-04-04T21:41:32Z</time>
        <extensions><gpxtpx:TrackPointExtension><gpxtpx:hr>165</gpxtpx:hr></gpxtpx:TrackPointExtension></extensions>
      </trkpt>
      <trkpt lat="59.9911435" lon="15.8294815">
        <ele>100.115</ele>
        <time>2012-04-04T21:41:38Z</time>
        <extensions><gpxtpx:TrackPointExtension><gpxtpx:hr>165</gpxtpx:hr></gpxtpx:TrackPointExtension></extensions>
      </trkpt>
      <trkpt lat="59.9910138" lon="15.8297368">
        <ele>98.6725</ele>
        <time>2012-04-04T21:41:45Z</time>
        <extensions><gpxtpx:TrackPointExtension><gpxtpx:hr>165</gpxtpx:hr></gpxtpx:TrackPointExtension></extensions>
      </trkpt>
      <trkpt lat="59.9909376" lon="15.8299295">
        <ele>100.115</ele>
        <time>2012-04-04T21:41:50Z</time>
        <extensions><gpxtpx:TrackPointExtension><gpxtpx:hr>165</gpxtpx:hr></gpxtpx:TrackPointExtension></extensions>
      </trkpt>
      <trkpt lat="59.9908872" lon="15.8301224">
        <ele>99.1531</ele>
        <time>2012-04-04T21:41:55Z</time>
        <extensions><gpxtpx:TrackPointExtension><gpxtpx:hr>165</gpxtpx:hr></gpxtpx:TrackPointExtension></extensions>
      </trkpt>
      <trkpt lat="59.9907907" lon="15.8303404">
        <ele>97.7112</ele>
        <time>2012-04-04T21:42:01Z</time>
        <extensions><gpxtpx:TrackPointExtension><gpxtpx:hr>164</gpxtpx:hr></gpxtpx:TrackPointExtension></extensions>
      </trkpt>
      <trkpt lat="59.990698" lon="15.8305512">
        <ele>98.1919</ele>
        <time>2012-04-04T21:42:06Z</time>
        <extensions><gpxtpx:TrackPointExtension><gpxtpx:hr>164</gpxtpx:hr></gpxtpx:TrackPointExtension></extensions>
      </trkpt>
      <trkpt lat="59.9906575" lon="15.8306455">
        <ele>99.6338</ele>
        <time>2012-04-04T21:42:08Z</time>
        <extensions><gpxtpx:TrackPointExtension><gpxtpx:hr>164</gpxtpx:hr></gpxtpx:TrackPointExtension></extensions>
      </trkpt>
      <trkpt lat="59.9905898" lon="15.8308376">
        <ele>101.076</ele>
        <time>2012-04-04T21:42:12Z</time>
        <extensions><gpxtpx:TrackPointExtension><gpxtpx:hr>164</gpxtpx:hr></gpxtpx:TrackPointExtension></extensions>
      </trkpt>
      <trkpt lat="59.990572" lon="15.8308848">
        <ele>101.556</ele>
        <time>2012-04-04T21:42:13Z</time>
        <extensions><gpxtpx:TrackPointExtension><gpxtpx:hr>164</gpxtpx:hr></gpxtpx:TrackPointExtension></extensions>
      </trkpt>
      <trkpt lat="59.9904608" lon="15.831133">
        <ele>102.518</ele>
        <time>2012-04-04T21:42:19Z</time>
        <extensions><gpxtpx:TrackPointExtension><gpxtpx:hr>164</gpxtpx:hr></gpxtpx:TrackPointExtension></extensions>
      </trkpt>
      <trkpt lat="59.9904094" lon="15.8312566">
        <ele>102.518</ele>
        <time>2012-04-04T21:42:22Z</time>
        <extensions><gpxtpx:TrackPointExtension><gpxtpx:hr>164</gpxtpx:hr></gpxtpx:TrackPointExtension></extensions>
      </trkpt>
      <trkpt lat="59.9903402" lon="15.8314619">
        <ele>102.518</ele>
        <time>2012-04-04T21:42:26Z</time>
        <extensions><gpxtpx:TrackPointExtension><gpxtpx:hr>164</gpxtpx:hr></gpxtpx:TrackPointExtension></extensions>
      </trkpt>
      <trkpt lat="59.9902513" lon="15.8317421">
        <ele>102.037</ele>
        <time>2012-04-04T21:42:32Z</time>
        <extensions><gpxtpx:TrackPointExtension><gpxtpx:hr>164</gpxtpx:hr></gpxtpx:TrackPointExtension></extensions>
      </trkpt>
      <trkpt lat="59.9901608" lon="15.8320016">
        <ele>103.96</ele>
        <time>2012-04-04T21:42:38Z</time>
        <extensions><gpxtpx:TrackPointExtension><gpxtpx:hr>164</gpxtpx:hr></gpxtpx:TrackPointExtension></extensions>
      </trkpt>
      <trkpt lat="59.9901241" lon="15.8321568">
        <ele>104.44</ele>
        <time>2012-04-04T21:42:41Z</time>
        <extensions><gpxtpx:TrackPointExtension><gpxtpx:hr>164</gpxtpx:hr></gpxtpx:TrackPointExtension></extensions>
      </trkpt>
      <trkpt lat="59.9900738" lon="15.8324129">
        <ele>106.363</ele>
        <time>2012-04-04T21:42:46Z</time>
        <extensions><gpxtpx:TrackPointExtension><gpxtpx:hr>164</gpxtpx:hr></gpxtpx:TrackPointExtension></extensions>
      </trkpt>
      <trkpt lat="59.9900524" lon="15.8325006">
        <ele>106.844</ele>
        <time>2012-04-04T21:42:48Z</time>
        <extensions><gpxtpx:TrackPointExtension><gpxtpx:hr>164</gpxtpx:hr></gpxtpx:TrackPointExtension></extensions>
      </trkpt>
      <trkpt lat="59.9899587" lon="15.8325337">
        <ele>107.805</ele>
        <time>2012-04-04T21:42:52Z</time>
        <extensions><gpxtpx:TrackPointExtension><gpxtpx:hr>164</gpxtpx:hr></gpxtpx:TrackPointExtension></extensions>
      </trkpt>
      <trkpt lat="59.9898603" lon="15.8324068">
        <ele>107.805</ele>
        <time>2012-04-04T21:42:57Z</time>
        <extensions><gpxtpx:TrackPointExtension><gpxtpx:hr>163</gpxtpx:hr></gpxtpx:TrackPointExtension></extensions>
      </trkpt>
      <trkpt lat="59.9897225" lon="15.8322405">
        <ele>107.805</ele>
        <time>2012-04-04T21:43:04Z</time>
        <extensions><gpxtpx:TrackPointExtension><gpxtpx:hr>164</gpxtpx:hr></gpxtpx:TrackPointExtension></extensions>
      </trkpt>
      <trkpt lat="59.9896367" lon="15.8321155">
        <ele>105.402</ele>
        <time>2012-04-04T21:43:09Z</time>
        <extensions><gpxtpx:TrackPointExtension><gpxtpx:hr>165</gpxtpx:hr></gpxtpx:TrackPointExtension></extensions>
      </trkpt>
      <trkpt lat="59.989538" lon="15.8319893">
        <ele>102.998</ele>
        <time>2012-04-04T21:43:14Z</time>
        <extensions><gpxtpx:TrackPointExtension><gpxtpx:hr>165</gpxtpx:hr></gpxtpx:TrackPointExtension></extensions>
      </trkpt>
      <trkpt lat="59.9894435" lon="15.8318545">
        <ele>102.037</ele>
        <time>2012-04-04T21:43:19Z</time>
        <extensions><gpxtpx:TrackPointExtension><gpxtpx:hr>164</gpxtpx:hr></gpxtpx:TrackPointExtension></extensions>
      </trkpt>
      <trkpt lat="59.9893398" lon="15.8316732">
        <ele>100.595</ele>
        <time>2012-04-04T21:43:24Z</time>
        <extensions><gpxtpx:TrackPointExtension><gpxtpx:hr>163</gpxtpx:hr></gpxtpx:TrackPointExtension></extensions>
      </trkpt>
      <trkpt lat="59.989263" lon="15.8314545">
        <ele>100.595</ele>
        <time>2012-04-04T21:43:29Z</time>
        <extensions><gpxtpx:TrackPointExtension><gpxtpx:hr>161</gpxtpx:hr></gpxtpx:TrackPointExtension></extensions>
      </trkpt>
      <trkpt lat="59.9892358" lon="15.8313596">
        <ele>101.076</ele>
        <time>2012-04-04T21:43:31Z</time>
        <extensions><gpxtpx:TrackPointExtension><gpxtpx:hr>160</gpxtpx:hr></gpxtpx:TrackPointExtension></extensions>
      </trkpt>
      <trkpt lat="59.989266" lon="15.831125">
        <ele>102.518</ele>
        <time>2012-04-04T21:43:36Z</time>
        <extensions><gpxtpx:TrackPointExtension><gpxtpx:hr>160</gpxtpx:hr></gpxtpx:TrackPointExtension></extensions>
      </trkpt>
      <trkpt lat="59.9892808" lon="15.8310851">
        <ele>102.998</ele>
        <time>2012-04-04T21:43:37Z</time>
        <extensions><gpxtpx:TrackPointExtension><gpxtpx:hr>160</gpxtpx:hr></gpxtpx:TrackPointExtension></extensions>
      </trkpt>
      <trkpt lat="59.9893847" lon="15.8308237">
        <ele>102.998</ele>
        <time>2012-04-04T21:43:44Z</time>
        <extensions><gpxtpx:TrackPointExtension><gpxtpx:hr>161</gpxtpx:hr></gpxtpx:TrackPointExtension></extensions>
      </trkpt>
      <trkpt lat="59.9894453" lon="15.83063">
        <ele>102.037</ele>
        <time>2012-04-04T21:43:49Z</time>
        <extensions><gpxtpx:TrackPointExtension><gpxtpx:hr>162</gpxtpx:hr></gpxtpx:TrackPointExtension></extensions>
      </trkpt>
      <trkpt lat="59.9894563" lon="15.830589">
        <ele>102.037</ele>
        <time>2012-04-04T21:43:50Z</time>
        <extensions><gpxtpx:TrackPointExtension><gpxtpx:hr>163</gpxtpx:hr></gpxtpx:TrackPointExtension></extensions>
      </trkpt>
      <trkpt lat="59.9894961" lon="15.8304355">
        <ele>102.998</ele>
        <time>2012-04-04T21:43:54Z</time>
        <extensions><gpxtpx:TrackPointExtension><gpxtpx:hr>163</gpxtpx:hr></gpxtpx:TrackPointExtension></extensions>
      </trkpt>
      <trkpt lat="59.9894665" lon="15.8302057">
        <ele>102.037</ele>
        <time>2012-04-04T21:43:59Z</time>
        <extensions><gpxtpx:TrackPointExtension><gpxtpx:hr>162</gpxtpx:hr></gpxtpx:TrackPointExtension></extensions>
      </trkpt>
      <trkpt lat="59.9893903" lon="15.8300296">
        <ele>104.44</ele>
        <time>2012-04-04T21:44:04Z</time>
        <extensions><gpxtpx:TrackPointExtension><gpxtpx:hr>161</gpxtpx:hr></gpxtpx:TrackPointExtension></extensions>
      </trkpt>
      <trkpt lat="59.9892781" lon="15.8298211">
        <ele>104.44</ele>
        <time>2012-04-04T21:44:10Z</time>
        <extensions><gpxtpx:TrackPointExtension><gpxtpx:hr>159</gpxtpx:hr></gpxtpx:TrackPointExtension></extensions>
      </trkpt>
      <trkpt lat="59.9891272" lon="15.8296173">
        <ele>104.44</ele>
        <time>2012-04-04T21:44:17Z</time>
        <extensions><gpxtpx:TrackPointExtension><gpxtpx:hr>161</gpxtpx:hr></gpxtpx:TrackPointExtension></extensions>
      </trkpt>
      <trkpt lat="59.9890154" lon="15.8295347">
        <ele>103.479</ele>
        <time>2012-04-04T21:44:22Z</time>
        <extensions><gpxtpx:TrackPointExtension><gpxtpx:hr>162</gpxtpx:hr></gpxtpx:TrackPointExtension></extensions>
      </trkpt>
      <trkpt lat="59.9888371" lon="15.8294105">
        <ele>102.998</ele>
        <time>2012-04-04T21:44:29Z</time>
        <extensions><gpxtpx:TrackPointExtension><gpxtpx:hr>162</gpxtpx:hr></gpxtpx:TrackPointExtension></extensions>
      </trkpt>
      <trkpt lat="59.9887742" lon="15.829586">
        <ele>102.518</ele>
        <time>2012-04-04T21:44:34Z</time>
        <extensions><gpxtpx:TrackPointExtension><gpxtpx:hr>162</gpxtpx:hr></gpxtpx:TrackPointExtension></extensions>
      </trkpt>
      <trkpt lat="59.9888146" lon="15.8298171">
        <ele>102.037</ele>
        <time>2012-04-04T21:44:39Z</time>
        <extensions><gpxtpx:TrackPointExtension><gpxtpx:hr>162</gpxtpx:hr></gpxtpx:TrackPointExtension></extensions>
      </trkpt>
      <trkpt lat="59.9888486" lon="15.8301537">
        <ele>101.556</ele>
        <time>2012-04-04T21:44:46Z</time>
        <extensions><gpxtpx:TrackPointExtension><gpxtpx:hr>164</gpxtpx:hr></gpxtpx:TrackPointExtension></extensions>
      </trkpt>
      <trkpt lat="59.9888497" lon="15.8302466">
        <ele>101.076</ele>
        <time>2012-04-04T21:44:48Z</time>
        <extensions><gpxtpx:TrackPointExtension><gpxtpx:hr>163</gpxtpx:hr></gpxtpx:TrackPointExtension></extensions>
      </trkpt>
      <trkpt lat="59.9887946" lon="15.8304564">
        <ele>100.595</ele>
        <time>2012-04-04T21:44:53Z</time>
        <extensions><gpxtpx:TrackPointExtension><gpxtpx:hr>163</gpxtpx:hr></gpxtpx:TrackPointExtension></extensions>
      </trkpt>
      <trkpt lat="59.9886936" lon="15.8307024">
        <ele>99.6338</ele>
        <time>2012-04-04T21:44:59Z</time>
        <extensions><gpxtpx:TrackPointExtension><gpxtpx:hr>164</gpxtpx:hr></gpxtpx:TrackPointExtension></extensions>
      </trkpt>
      <trkpt lat="59.9886369" lon="15.8308837">
        <ele>99.6338</ele>
        <time>2012-04-04T21:45:03Z</time>
        <extensions><gpxtpx:TrackPointExtension><gpxtpx:hr>164</gpxtpx:hr></gpxtpx:TrackPointExtension></extensions>
      </trkpt>
      <trkpt lat="59.9885887" lon="15.831098">
        <ele>97.7112</ele>
        <time>2012-04-04T21:45:08Z</time>
        <extensions><gpxtpx:TrackPointExtension><gpxtpx:hr>164</gpxtpx:hr></gpxtpx:TrackPointExtension></extensions>
      </trkpt>
      <trkpt lat="59.9885497" lon="15.8312377">
        <ele>96.2693</ele>
        <time>2012-04-04T21:45:12Z</time>
        <extensions><gpxtpx:TrackPointExtension><gpxtpx:hr>164</gpxtpx:hr></gpxtpx:TrackPointExtension></extensions>
      </trkpt>
      <trkpt lat="59.9884866" lon="15.8314887">
        <ele>93.8658</ele>
        <time>2012-04-04T21:45:18Z</time>
        <extensions><gpxtpx:TrackPointExtension><gpxtpx:hr>164</gpxtpx:hr></gpxtpx:TrackPointExtension></extensions>
      </trkpt>
      <trkpt lat="59.988423" lon="15.8317209">
        <ele>91.9432</ele>
        <time>2012-04-04T21:45:23Z</time>
        <extensions><gpxtpx:TrackPointExtension><gpxtpx:hr>163</gpxtpx:hr></gpxtpx:TrackPointExtension></extensions>
      </trkpt>
      <trkpt lat="59.9883438" lon="15.8319132">
        <ele>90.0206</ele>
        <time>2012-04-04T21:45:27Z</time>
        <extensions><gpxtpx:TrackPointExtension><gpxtpx:hr>161</gpxtpx:hr></gpxtpx:TrackPointExtension></extensions>
      </trkpt>
      <trkpt lat="59.9882468" lon="15.8321306">
        <ele>89.0593</ele>
        <time>2012-04-04T21:45:32Z</time>
        <extensions><gpxtpx:TrackPointExtension><gpxtpx:hr>161</gpxtpx:hr></gpxtpx:TrackPointExtension></extensions>
      </trkpt>
      <trkpt lat="59.9881764" lon="15.8322649">
        <ele>88.098</ele>
        <time>2012-04-04T21:45:36Z</time>
        <extensions><gpxtpx:TrackPointExtension><gpxtpx:hr>161</gpxtpx:hr></gpxtpx:TrackPointExtension></extensions>
      </trkpt>
      <trkpt lat="59.9880803" lon="15.832376">
        <ele>87.6172</ele>
        <time>2012-04-04T21:45:40Z</time>
        <extensions><gpxtpx:TrackPointExtension><gpxtpx:hr>161</gpxtpx:hr></gpxtpx:TrackPointExtension></extensions>
      </trkpt>
      <trkpt lat="59.9879867" lon="15.8324956">
        <ele>90.0206</ele>
        <time>2012-04-04T21:45:44Z</time>
        <extensions><gpxtpx:TrackPointExtension><gpxtpx:hr>161</gpxtpx:hr></gpxtpx:TrackPointExtension></extensions>
      </trkpt>
      <trkpt lat="59.9879474" lon="15.8325571">
        <ele>90.9819</ele>
        <time>2012-04-04T21:45:46Z</time>
        <extensions><gpxtpx:TrackPointExtension><gpxtpx:hr>161</gpxtpx:hr></gpxtpx:TrackPointExtension></extensions>
      </trkpt>
      <trkpt lat="59.9878043" lon="15.8326632">
        <ele>90.9819</ele>
        <time>2012-04-04T21:45:52Z</time>
        <extensions><gpxtpx:TrackPointExtension><gpxtpx:hr>161</gpxtpx:hr></gpxtpx:TrackPointExtension></extensions>
      </trkpt>
      <trkpt lat="59.9876574" lon="15.8327652">
        <ele>91.4625</ele>
        <time>2012-04-04T21:45:58Z</time>
        <extensions><gpxtpx:TrackPointExtension><gpxtpx:hr>162</gpxtpx:hr></gpxtpx:TrackPointExtension></extensions>
      </trkpt>
      <trkpt lat="59.9874955" lon="15.8329093">
        <ele>92.424</ele>
        <time>2012-04-04T21:46:04Z</time>
        <extensions><gpxtpx:TrackPointExtension><gpxtpx:hr>163</gpxtpx:hr></gpxtpx:TrackPointExtension></extensions>
      </trkpt>
      <trkpt lat="59.987366" lon="15.8331149">
        <ele>93.3851</ele>
        <time>2012-04-04T21:46:10Z</time>
        <extensions><gpxtpx:TrackPointExtension><gpxtpx:hr>163</gpxtpx:hr></gpxtpx:TrackPointExtension></extensions>
      </trkpt>
      <trkpt lat="59.9872756" lon="15.8333126">
        <ele>93.3851</ele>
        <time>2012-04-04T21:46:15Z</time>
        <extensions><gpxtpx:TrackPointExtension><gpxtpx:hr>164</gpxtpx:hr></gpxtpx:TrackPointExtension></extensions>
      </trkpt>
      <trkpt lat="59.9871133" lon="15.8334355">
        <ele>93.3851</ele>
        <time>2012-04-04T21:46:21Z</time>
        <extensions><gpxtpx:TrackPointExtension><gpxtpx:hr>164</gpxtpx:hr></gpxtpx:TrackPointExtension></extensions>
      </trkpt>
      <trkpt lat="59.9870003" lon="15.833475">
        <ele>90.9819</ele>
        <time>2012-04-04T21:46:26Z</time>
        <extensions><gpxtpx:TrackPointExtension><gpxtpx:hr>164</gpxtpx:hr></gpxtpx:TrackPointExtension></extensions>
      </trkpt>
      <trkpt lat="59.9868653" lon="15.8334676">
        <ele>86.656</ele>
        <time>2012-04-04T21:46:32Z</time>
        <extensions><gpxtpx:TrackPointExtension><gpxtpx:hr>164</gpxtpx:hr></gpxtpx:TrackPointExtension></extensions>
      </trkpt>
      <trkpt lat="59.9867485" lon="15.8334752">
        <ele>83.772</ele>
        <time>2012-04-04T21:46:37Z</time>
        <extensions><gpxtpx:TrackPointExtension><gpxtpx:hr>163</gpxtpx:hr></gpxtpx:TrackPointExtension></extensions>
      </trkpt>
      <trkpt lat="59.9866064" lon="15.8335671">
        <ele>82.3301</ele>
        <time>2012-04-04T21:46:43Z</time>
        <extensions><gpxtpx:TrackPointExtension><gpxtpx:hr>163</gpxtpx:hr></gpxtpx:TrackPointExtension></extensions>
      </trkpt>
      <trkpt lat="59.9864571" lon="15.8336653">
        <ele>84.7334</ele>
        <time>2012-04-04T21:46:48Z</time>
        <extensions><gpxtpx:TrackPointExtension><gpxtpx:hr>163</gpxtpx:hr></gpxtpx:TrackPointExtension></extensions>
      </trkpt>
      <trkpt lat="59.9863312" lon="15.8337991">
        <ele>87.1366</ele>
        <time>2012-04-04T21:46:53Z</time>
        <extensions><gpxtpx:TrackPointExtension><gpxtpx:hr>163</gpxtpx:hr></gpxtpx:TrackPointExtension></extensions>
      </trkpt>
      <trkpt lat="59.986202" lon="15.8339369">
        <ele>90.0206</ele>
        <time>2012-04-04T21:46:58Z</time>
        <extensions><gpxtpx:TrackPointExtension><gpxtpx:hr>163</gpxtpx:hr></gpxtpx:TrackPointExtension></extensions>
      </trkpt>
      <trkpt lat="59.986116" lon="15.8340121">
        <ele>91.9432</ele>
        <time>2012-04-04T21:47:01Z</time>
        <extensions><gpxtpx:TrackPointExtension><gpxtpx:hr>163</gpxtpx:hr></gpxtpx:TrackPointExtension></extensions>
      </trkpt>
      <trkpt lat="59.9861036" lon="15.8342053">
        <ele>93.3851</ele>
        <time>2012-04-04T21:47:05Z</time>
        <extensions><gpxtpx:TrackPointExtension><gpxtpx:hr>164</gpxtpx:hr></gpxtpx:TrackPointExtension></extensions>
      </trkpt>
      <trkpt lat="59.986149" lon="15.8344529">
        <ele>94.3466</ele>
        <time>2012-04-04T21:47:10Z</time>
        <extensions><gpxtpx:TrackPointExtension><gpxtpx:hr>165</gpxtpx:hr></gpxtpx:TrackPointExtension></extensions>
      </trkpt>
      <trkpt lat="59.9862146" lon="15.8347259">
        <ele>94.8271</ele>
        <time>2012-04-04T21:47:16Z</time>
        <extensions><gpxtpx:TrackPointExtension><gpxtpx:hr>165</gpxtpx:hr></gpxtpx:TrackPointExtension></extensions>
      </trkpt>
      <trkpt lat="59.9862939" lon="15.8349971">
        <ele>94.8271</ele>
        <time>2012-04-04T21:47:22Z</time>
        <extensions><gpxtpx:TrackPointExtension><gpxtpx:hr>165</gpxtpx:hr></gpxtpx:TrackPointExtension></extensions>
      </trkpt>
      <trkpt lat="59.986372" lon="15.8352692">
        <ele>94.8271</ele>
        <time>2012-04-04T21:47:28Z</time>
        <extensions><gpxtpx:TrackPointExtension><gpxtpx:hr>165</gpxtpx:hr></gpxtpx:TrackPointExtension></extensions>
      </trkpt>
      <trkpt lat="59.9864462" lon="15.8354978">
        <ele>94.8271</ele>
        <time>2012-04-04T21:47:33Z</time>
        <extensions><gpxtpx:TrackPointExtension><gpxtpx:hr>165</gpxtpx:hr></gpxtpx:TrackPointExtension></extensions>
      </trkpt>
      <trkpt lat="59.986541" lon="15.8357698">
        <ele>95.3077</ele>
        <time>2012-04-04T21:47:39Z</time>
        <extensions><gpxtpx:TrackPointExtension><gpxtpx:hr>166</gpxtpx:hr></gpxtpx:TrackPointExtension></extensions>
      </trkpt>
      <trkpt lat="59.9866291" lon="15.8360923">
        <ele>97.2305</ele>
        <time>2012-04-04T21:47:46Z</time>
        <extensions><gpxtpx:TrackPointExtension><gpxtpx:hr>166</gpxtpx:hr></gpxtpx:TrackPointExtension></extensions>
      </trkpt>
      <trkpt lat="59.9866784" lon="15.8363085">
        <ele>97.2305</ele>
        <time>2012-04-04T21:47:51Z</time>
        <extensions><gpxtpx:TrackPointExtension><gpxtpx:hr>167</gpxtpx:hr></gpxtpx:TrackPointExtension></extensions>
      </trkpt>
      <trkpt lat="59.9866509" lon="15.836489">
        <ele>97.2305</ele>
        <time>2012-04-04T21:47:55Z</time>
        <extensions><gpxtpx:TrackPointExtension><gpxtpx:hr>167</gpxtpx:hr></gpxtpx:TrackPointExtension></extensions>
      </trkpt>
      <trkpt lat="59.9865527" lon="15.836728">
        <ele>96.2693</ele>
        <time>2012-04-04T21:48:01Z</time>
        <extensions><gpxtpx:TrackPointExtension><gpxtpx:hr>166</gpxtpx:hr></gpxtpx:TrackPointExtension></extensions>
      </trkpt>
      <trkpt lat="59.9864144" lon="15.8370134">
        <ele>95.7885</ele>
        <time>2012-04-04T21:48:08Z</time>
        <extensions><gpxtpx:TrackPointExtension><gpxtpx:hr>167</gpxtpx:hr></gpxtpx:TrackPointExtension></extensions>
      </trkpt>
      <trkpt lat="59.9863051" lon="15.8372636">
        <ele>94.3466</ele>
        <time>2012-04-04T21:48:14Z</time>
        <extensions><gpxtpx:TrackPointExtension><gpxtpx:hr>167</gpxtpx:hr></gpxtpx:TrackPointExtension></extensions>
      </trkpt>
      <trkpt lat="59.9861477" lon="15.8375842">
        <ele>93.8658</ele>
        <time>2012-04-04T21:48:22Z</time>
        <extensions><gpxtpx:TrackPointExtension><gpxtpx:hr>167</gpxtpx:hr></gpxtpx:TrackPointExtension></extensions>
      </trkpt>
      <trkpt lat="59.9860241" lon="15.8378138">
        <ele>94.8271</ele>
        <time>2012-04-04T21:48:28Z</time>
        <extensions><gpxtpx:TrackPointExtension><gpxtpx:hr>166</gpxtpx:hr></gpxtpx:TrackPointExtension></extensions>
      </trkpt>
      <trkpt lat="59.9858777" lon="15.83808">
        <ele>95.3077</ele>
        <time>2012-04-04T21:48:35Z</time>
        <extensions><gpxtpx:TrackPointExtension><gpxtpx:hr>165</gpxtpx:hr></gpxtpx:TrackPointExtension></extensions>
      </trkpt>
      <trkpt lat="59.9857468" lon="15.8382887">
        <ele>95.7885</ele>
        <time>2012-04-04T21:48:41Z</time>
        <extensions><gpxtpx:TrackPointExtension><gpxtpx:hr>165</gpxtpx:hr></gpxtpx:TrackPointExtension></extensions>
      </trkpt>
      <trkpt lat="59.9856296" lon="15.8385092">
        <ele>97.7112</ele>
        <time>2012-04-04T21:48:47Z</time>
        <extensions><gpxtpx:TrackPointExtension><gpxtpx:hr>164</gpxtpx:hr></gpxtpx:TrackPointExtension></extensions>
      </trkpt>
      <trkpt lat="59.9855061" lon="15.8386989">
        <ele>98.1919</ele>
        <time>2012-04-04T21:48:53Z</time>
        <extensions><gpxtpx:TrackPointExtension><gpxtpx:hr>163</gpxtpx:hr></gpxtpx:TrackPointExtension></extensions>
      </trkpt>
      <trkpt lat="59.9853412" lon="15.838961">
        <ele>96.2693</ele>
        <time>2012-04-04T21:49:01Z</time>
        <extensions><gpxtpx:TrackPointExtension><gpxtpx:hr>163</gpxtpx:hr></gpxtpx:TrackPointExtension></extensions>
      </trkpt>
      <trkpt lat="59.9852334" lon="15.8390989">
        <ele>96.2693</ele>
        <time>2012-04-04T21:49:06Z</time>
        <extensions><gpxtpx:TrackPointExtension><gpxtpx:hr>163</gpxtpx:hr></gpxtpx:TrackPointExtension></extensions>
      </trkpt>
      <trkpt lat="59.9850857" lon="15.8393039">
        <ele>95.3077</ele>
        <time>2012-04-04T21:49:13Z</time>
        <extensions><gpxtpx:TrackPointExtension><gpxtpx:hr>163</gpxtpx:hr></gpxtpx:TrackPointExtension></extensions>
      </trkpt>
      <trkpt lat="59.984952" lon="15.8394438">
        <ele>94.3466</ele>
        <time>2012-04-04T21:49:19Z</time>
        <extensions><gpxtpx:TrackPointExtension><gpxtpx:hr>163</gpxtpx:hr></gpxtpx:TrackPointExtension></extensions>
      </trkpt>
      <trkpt lat="59.9848231" lon="15.8395652">
        <ele>92.9045</ele>
        <time>2012-04-04T21:49:25Z</time>
        <extensions><gpxtpx:TrackPointExtension><gpxtpx:hr>162</gpxtpx:hr></gpxtpx:TrackPointExtension></extensions>
      </trkpt>
      <trkpt lat="59.984685" lon="15.8396745">
        <ele>91.9432</ele>
        <time>2012-04-04T21:49:31Z</time>
        <extensions><gpxtpx:TrackPointExtension><gpxtpx:hr>163</gpxtpx:hr></gpxtpx:TrackPointExtension></extensions>
      </trkpt>
      <trkpt lat="59.9845438" lon="15.8397638">
        <ele>90.0206</ele>
        <time>2012-04-04T21:49:37Z</time>
        <extensions><gpxtpx:TrackPointExtension><gpxtpx:hr>163</gpxtpx:hr></gpxtpx:TrackPointExtension></extensions>
      </trkpt>
      <trkpt lat="59.9843969" lon="15.8398346">
        <ele>88.5787</ele>
        <time>2012-04-04T21:49:43Z</time>
        <extensions><gpxtpx:TrackPointExtension><gpxtpx:hr>163</gpxtpx:hr></gpxtpx:TrackPointExtension></extensions>
      </trkpt>
      <trkpt lat="59.9842782" lon="15.8398877">
        <ele>85.6946</ele>
        <time>2012-04-04T21:49:48Z</time>
        <extensions><gpxtpx:TrackPointExtension><gpxtpx:hr>163</gpxtpx:hr></gpxtpx:TrackPointExtension></extensions>
      </trkpt>
      <trkpt lat="59.9841654" lon="15.8399598">
        <ele>84.7334</ele>
        <time>2012-04-04T21:49:53Z</time>
        <extensions><gpxtpx:TrackPointExtension><gpxtpx:hr>163</gpxtpx:hr></gpxtpx:TrackPointExtension></extensions>
      </trkpt>
      <trkpt lat="59.9840228" lon="15.840024">
        <ele>83.2914</ele>
        <time>2012-04-04T21:49:59Z</time>
        <extensions><gpxtpx:TrackPointExtension><gpxtpx:hr>162</gpxtpx:hr></gpxtpx:TrackPointExtension></extensions>
      </trkpt>
      <trkpt lat="59.9838542" lon="15.840098">
        <ele>82.8108</ele>
        <time>2012-04-04T21:50:05Z</time>
        <extensions><gpxtpx:TrackPointExtension><gpxtpx:hr>162</gpxtpx:hr></gpxtpx:TrackPointExtension></extensions>
      </trkpt>
      <trkpt lat="59.9836371" lon="15.8401784">
        <ele>80.8882</ele>
        <time>2012-04-04T21:50:13Z</time>
        <extensions><gpxtpx:TrackPointExtension><gpxtpx:hr>162</gpxtpx:hr></gpxtpx:TrackPointExtension></extensions>
      </trkpt>
      <trkpt lat="59.9834726" lon="15.840237">
        <ele>80.8882</ele>
        <time>2012-04-04T21:50:19Z</time>
        <extensions><gpxtpx:TrackPointExtension><gpxtpx:hr>162</gpxtpx:hr></gpxtpx:TrackPointExtension></extensions>
      </trkpt>
      <trkpt lat="59.9833028" lon="15.8402909">
        <ele>80.8882</ele>
        <time>2012-04-04T21:50:25Z</time>
        <extensions><gpxtpx:TrackPointExtension><gpxtpx:hr>162</gpxtpx:hr></gpxtpx:TrackPointExtension></extensions>
      </trkpt>
      <trkpt lat="59.9831651" lon="15.8403406">
        <ele>81.3688</ele>
        <time>2012-04-04T21:50:30Z</time>
        <extensions><gpxtpx:TrackPointExtension><gpxtpx:hr>162</gpxtpx:hr></gpxtpx:TrackPointExtension></extensions>
      </trkpt>
      <trkpt lat="59.9830077" lon="15.8403964">
        <ele>81.3688</ele>
        <time>2012-04-04T21:50:36Z</time>
        <extensions><gpxtpx:TrackPointExtension><gpxtpx:hr>160</gpxtpx:hr></gpxtpx:TrackPointExtension></extensions>
      </trkpt>
      <trkpt lat="59.982889" lon="15.8403224">
        <ele>81.8494</ele>
        <time>2012-04-04T21:50:41Z</time>
        <extensions><gpxtpx:TrackPointExtension><gpxtpx:hr>158</gpxtpx:hr></gpxtpx:TrackPointExtension></extensions>
      </trkpt>
      <trkpt lat="59.9828174" lon="15.840056">
        <ele>81.3688</ele>
        <time>2012-04-04T21:50:47Z</time>
        <extensions><gpxtpx:TrackPointExtension><gpxtpx:hr>155</gpxtpx:hr></gpxtpx:TrackPointExtension></extensions>
      </trkpt>
      <trkpt lat="59.9827689" lon="15.8397407">
        <ele>80.4075</ele>
        <time>2012-04-04T21:50:53Z</time>
        <extensions><gpxtpx:TrackPointExtension><gpxtpx:hr>157</gpxtpx:hr></gpxtpx:TrackPointExtension></extensions>
      </trkpt>
      <trkpt lat="59.9827349" lon="15.8394832">
        <ele>79.9266</ele>
        <time>2012-04-04T21:50:58Z</time>
        <extensions><gpxtpx:TrackPointExtension><gpxtpx:hr>160</gpxtpx:hr></gpxtpx:TrackPointExtension></extensions>
      </trkpt>
      <trkpt lat="59.9827036" lon="15.8391622">
        <ele>79.446</ele>
        <time>2012-04-04T21:51:04Z</time>
        <extensions><gpxtpx:TrackPointExtension><gpxtpx:hr>164</gpxtpx:hr></gpxtpx:TrackPointExtension></extensions>
      </trkpt>
      <trkpt lat="59.9826707" lon="15.8388368">
        <ele>79.446</ele>
        <time>2012-04-04T21:51:10Z</time>
        <extensions><gpxtpx:TrackPointExtension><gpxtpx:hr>165</gpxtpx:hr></gpxtpx:TrackPointExtension></extensions>
      </trkpt>
      <trkpt lat="59.9826429" lon="15.8385033">
        <ele>78.4847</ele>
        <time>2012-04-04T21:51:16Z</time>
        <extensions><gpxtpx:TrackPointExtension><gpxtpx:hr>165</gpxtpx:hr></gpxtpx:TrackPointExtension></extensions>
      </trkpt>
      <trkpt lat="59.9826124" lon="15.838237">
        <ele>78.4847</ele>
        <time>2012-04-04T21:51:21Z</time>
        <extensions><gpxtpx:TrackPointExtension><gpxtpx:hr>166</gpxtpx:hr></gpxtpx:TrackPointExtension></extensions>
      </trkpt>
      <trkpt lat="59.9825943" lon="15.8379984">
        <ele>78.4847</ele>
        <time>2012-04-04T21:51:25Z</time>
        <extensions><gpxtpx:TrackPointExtension><gpxtpx:hr>167</gpxtpx:hr></gpxtpx:TrackPointExtension></extensions>
      </trkpt>
      <trkpt lat="59.9825595" lon="15.8376815">
        <ele>77.5234</ele>
        <time>2012-04-04T21:51:31Z</time>
        <extensions><gpxtpx:TrackPointExtension><gpxtpx:hr>168</gpxtpx:hr></gpxtpx:TrackPointExtension></extensions>
      </trkpt>
      <trkpt lat="59.9825309" lon="15.8373548">
        <ele>78.004</ele>
        <time>2012-04-04T21:51:37Z</time>
        <extensions><gpxtpx:TrackPointExtension><gpxtpx:hr>168</gpxtpx:hr></gpxtpx:TrackPointExtension></extensions>
      </trkpt>
      <trkpt lat="59.9825041" lon="15.8370309">
        <ele>79.446</ele>
        <time>2012-04-04T21:51:43Z</time>
        <extensions><gpxtpx:TrackPointExtension><gpxtpx:hr>169</gpxtpx:hr></gpxtpx:TrackPointExtension></extensions>
      </trkpt>
      <trkpt lat="59.9824873" lon="15.8368166">
        <ele>79.9266</ele>
        <time>2012-04-04T21:51:47Z</time>
        <extensions><gpxtpx:TrackPointExtension><gpxtpx:hr>169</gpxtpx:hr></gpxtpx:TrackPointExtension></extensions>
      </trkpt>
      <trkpt lat="59.9824782" lon="15.836588">
        <ele>79.446</ele>
        <time>2012-04-04T21:51:51Z</time>
        <extensions><gpxtpx:TrackPointExtension><gpxtpx:hr>169</gpxtpx:hr></gpxtpx:TrackPointExtension></extensions>
      </trkpt>
      <trkpt lat="59.9824563" lon="15.8362855">
        <ele>79.9266</ele>
        <time>2012-04-04T21:51:56Z</time>
        <extensions><gpxtpx:TrackPointExtension><gpxtpx:hr>169</gpxtpx:hr></gpxtpx:TrackPointExtension></extensions>
      </trkpt>
      <trkpt lat="59.9824316" lon="15.8360048">
        <ele>78.9655</ele>
        <time>2012-04-04T21:52:01Z</time>
        <extensions><gpxtpx:TrackPointExtension><gpxtpx:hr>169</gpxtpx:hr></gpxtpx:TrackPointExtension></extensions>
      </trkpt>
      <trkpt lat="59.9823983" lon="15.8356627">
        <ele>78.4847</ele>
        <time>2012-04-04T21:52:07Z</time>
        <extensions><gpxtpx:TrackPointExtension><gpxtpx:hr>170</gpxtpx:hr></gpxtpx:TrackPointExtension></extensions>
      </trkpt>
      <trkpt lat="59.982371" lon="15.8353412">
        <ele>78.9655</ele>
        <time>2012-04-04T21:52:13Z</time>
        <extensions><gpxtpx:TrackPointExtension><gpxtpx:hr>170</gpxtpx:hr></gpxtpx:TrackPointExtension></extensions>
      </trkpt>
      <trkpt lat="59.9823626" lon="15.8351261">
        <ele>78.9655</ele>
        <time>2012-04-04T21:52:17Z</time>
        <extensions><gpxtpx:TrackPointExtension><gpxtpx:hr>170</gpxtpx:hr></gpxtpx:TrackPointExtension></extensions>
      </trkpt>
      <trkpt lat="59.9823521" lon="15.8348968">
        <ele>78.9655</ele>
        <time>2012-04-04T21:52:21Z</time>
        <extensions><gpxtpx:TrackPointExtension><gpxtpx:hr>170</gpxtpx:hr></gpxtpx:TrackPointExtension></extensions>
      </trkpt>
      <trkpt lat="59.9823418" lon="15.8346253">
        <ele>80.4075</ele>
        <time>2012-04-04T21:52:26Z</time>
        <extensions><gpxtpx:TrackPointExtension><gpxtpx:hr>171</gpxtpx:hr></gpxtpx:TrackPointExtension></extensions>
      </trkpt>
      <trkpt lat="59.9823397" lon="15.8343579">
        <ele>82.3301</ele>
        <time>2012-04-04T21:52:31Z</time>
        <extensions><gpxtpx:TrackPointExtension><gpxtpx:hr>171</gpxtpx:hr></gpxtpx:TrackPointExtension></extensions>
      </trkpt>
      <trkpt lat="59.9823461" lon="15.8340763">
        <ele>82.8108</ele>
        <time>2012-04-04T21:52:36Z</time>
        <extensions><gpxtpx:TrackPointExtension><gpxtpx:hr>171</gpxtpx:hr></gpxtpx:TrackPointExtension></extensions>
      </trkpt>
      <trkpt lat="59.9823425" lon="15.8337354">
        <ele>82.8108</ele>
        <time>2012-04-04T21:52:42Z</time>
        <extensions><gpxtpx:TrackPointExtension><gpxtpx:hr>171</gpxtpx:hr></gpxtpx:TrackPointExtension></extensions>
      </trkpt>
      <trkpt lat="59.9823471" lon="15.8334712">
        <ele>82.3301</ele>
        <time>2012-04-04T21:52:47Z</time>
        <extensions><gpxtpx:TrackPointExtension><gpxtpx:hr>170</gpxtpx:hr></gpxtpx:TrackPointExtension></extensions>
      </trkpt>
      <trkpt lat="59.9823403" lon="15.8331821">
        <ele>81.8494</ele>
        <time>2012-04-04T21:52:52Z</time>
        <extensions><gpxtpx:TrackPointExtension><gpxtpx:hr>170</gpxtpx:hr></gpxtpx:TrackPointExtension></extensions>
      </trkpt>
      <trkpt lat="59.982338" lon="15.8329159">
        <ele>82.3301</ele>
        <time>2012-04-04T21:52:57Z</time>
        <extensions><gpxtpx:TrackPointExtension><gpxtpx:hr>170</gpxtpx:hr></gpxtpx:TrackPointExtension></extensions>
      </trkpt>
      <trkpt lat="59.9823481" lon="15.832599">
        <ele>82.8108</ele>
        <time>2012-04-04T21:53:03Z</time>
        <extensions><gpxtpx:TrackPointExtension><gpxtpx:hr>170</gpxtpx:hr></gpxtpx:TrackPointExtension></extensions>
      </trkpt>
      <trkpt lat="59.9823613" lon="15.8323176">
        <ele>82.8108</ele>
        <time>2012-04-04T21:53:08Z</time>
        <extensions><gpxtpx:TrackPointExtension><gpxtpx:hr>169</gpxtpx:hr></gpxtpx:TrackPointExtension></extensions>
      </trkpt>
      <trkpt lat="59.9823735" lon="15.8320477">
        <ele>82.8108</ele>
        <time>2012-04-04T21:53:13Z</time>
        <extensions><gpxtpx:TrackPointExtension><gpxtpx:hr>169</gpxtpx:hr></gpxtpx:TrackPointExtension></extensions>
      </trkpt>
      <trkpt lat="59.982407" lon="15.8316484">
        <ele>81.8494</ele>
        <time>2012-04-04T21:53:20Z</time>
        <extensions><gpxtpx:TrackPointExtension><gpxtpx:hr>169</gpxtpx:hr></gpxtpx:TrackPointExtension></extensions>
      </trkpt>
      <trkpt lat="59.9824431" lon="15.8312675">
        <ele>82.3301</ele>
        <time>2012-04-04T21:53:27Z</time>
        <extensions><gpxtpx:TrackPointExtension><gpxtpx:hr>169</gpxtpx:hr></gpxtpx:TrackPointExtension></extensions>
      </trkpt>
      <trkpt lat="59.9824822" lon="15.8309454">
        <ele>81.3688</ele>
        <time>2012-04-04T21:53:33Z</time>
        <extensions><gpxtpx:TrackPointExtension><gpxtpx:hr>169</gpxtpx:hr></gpxtpx:TrackPointExtension></extensions>
      </trkpt>
      <trkpt lat="59.9825198" lon="15.8306294">
        <ele>80.4075</ele>
        <time>2012-04-04T21:53:39Z</time>
        <extensions><gpxtpx:TrackPointExtension><gpxtpx:hr>169</gpxtpx:hr></gpxtpx:TrackPointExtension></extensions>
      </trkpt>
      <trkpt lat="59.9825262" lon="15.8305745">
        <ele>80.4075</ele>
        <time>2012-04-04T21:53:40Z</time>
        <extensions><gpxtpx:TrackPointExtension><gpxtpx:hr>168</gpxtpx:hr></gpxtpx:TrackPointExtension></extensions>
      </trkpt>
      <trkpt lat="59.9825937" lon="15.8302811">
        <ele>79.9266</ele>
        <time>2012-04-04T21:53:46Z</time>
        <extensions><gpxtpx:TrackPointExtension><gpxtpx:hr>168</gpxtpx:hr></gpxtpx:TrackPointExtension></extensions>
      </trkpt>
      <trkpt lat="59.9826335" lon="15.8300286">
        <ele>79.9266</ele>
        <time>2012-04-04T21:53:51Z</time>
        <extensions><gpxtpx:TrackPointExtension><gpxtpx:hr>168</gpxtpx:hr></gpxtpx:TrackPointExtension></extensions>
      </trkpt>
      <trkpt lat="59.9826911" lon="15.8297701">
        <ele>80.8882</ele>
        <time>2012-04-04T21:53:56Z</time>
        <extensions><gpxtpx:TrackPointExtension><gpxtpx:hr>169</gpxtpx:hr></gpxtpx:TrackPointExtension></extensions>
      </trkpt>
      <trkpt lat="59.9827589" lon="15.829522">
        <ele>82.3301</ele>
        <time>2012-04-04T21:54:01Z</time>
        <extensions><gpxtpx:TrackPointExtension><gpxtpx:hr>170</gpxtpx:hr></gpxtpx:TrackPointExtension></extensions>
      </trkpt>
      <trkpt lat="59.9828451" lon="15.8292237">
        <ele>83.2914</ele>
        <time>2012-04-04T21:54:07Z</time>
        <extensions><gpxtpx:TrackPointExtension><gpxtpx:hr>171</gpxtpx:hr></gpxtpx:TrackPointExtension></extensions>
      </trkpt>
      <trkpt lat="59.9829154" lon="15.8289858">
        <ele>83.772</ele>
        <time>2012-04-04T21:54:12Z</time>
        <extensions><gpxtpx:TrackPointExtension><gpxtpx:hr>171</gpxtpx:hr></gpxtpx:TrackPointExtension></extensions>
      </trkpt>
      <trkpt lat="59.9830081" lon="15.8287143">
        <ele>84.2527</ele>
        <time>2012-04-04T21:54:18Z</time>
        <extensions><gpxtpx:TrackPointExtension><gpxtpx:hr>171</gpxtpx:hr></gpxtpx:TrackPointExtension></extensions>
      </trkpt>
      <trkpt lat="59.9831001" lon="15.8284518">
        <ele>84.2527</ele>
        <time>2012-04-04T21:54:24Z</time>
        <extensions><gpxtpx:TrackPointExtension><gpxtpx:hr>172</gpxtpx:hr></gpxtpx:TrackPointExtension></extensions>
      </trkpt>
      <trkpt lat="59.9831795" lon="15.8282654">
        <ele>83.2914</ele>
        <time>2012-04-04T21:54:29Z</time>
        <extensions><gpxtpx:TrackPointExtension><gpxtpx:hr>172</gpxtpx:hr></gpxtpx:TrackPointExtension></extensions>
      </trkpt>
      <trkpt lat="59.9832393" lon="15.8281232">
        <ele>82.3301</ele>
        <time>2012-04-04T21:54:33Z</time>
        <extensions><gpxtpx:TrackPointExtension><gpxtpx:hr>172</gpxtpx:hr></gpxtpx:TrackPointExtension></extensions>
      </trkpt>
      <trkpt lat="59.9833312" lon="15.8278891">
        <ele>79.446</ele>
        <time>2012-04-04T21:54:39Z</time>
        <extensions><gpxtpx:TrackPointExtension><gpxtpx:hr>172</gpxtpx:hr></gpxtpx:TrackPointExtension></extensions>
      </trkpt>
      <trkpt lat="59.9834132" lon="15.827697">
        <ele>78.004</ele>
        <time>2012-04-04T21:54:44Z</time>
        <extensions><gpxtpx:TrackPointExtension><gpxtpx:hr>173</gpxtpx:hr></gpxtpx:TrackPointExtension></extensions>
      </trkpt>
      <trkpt lat="59.9834758" lon="15.8275612">
        <ele>77.5234</ele>
        <time>2012-04-04T21:54:48Z</time>
        <extensions><gpxtpx:TrackPointExtension><gpxtpx:hr>172</gpxtpx:hr></gpxtpx:TrackPointExtension></extensions>
      </trkpt>
      <trkpt lat="59.9835912" lon="15.8273358">
        <ele>77.0428</ele>
        <time>2012-04-04T21:54:54Z</time>
        <extensions><gpxtpx:TrackPointExtension><gpxtpx:hr>173</gpxtpx:hr></gpxtpx:TrackPointExtension></extensions>
      </trkpt>
      <trkpt lat="59.9837261" lon="15.8271126">
        <ele>77.5234</ele>
        <time>2012-04-04T21:55:00Z</time>
        <extensions><gpxtpx:TrackPointExtension><gpxtpx:hr>173</gpxtpx:hr></gpxtpx:TrackPointExtension></extensions>
      </trkpt>
      <trkpt lat="59.9838323" lon="15.8269236">
        <ele>77.5234</ele>
        <time>2012-04-04T21:55:05Z</time>
        <extensions><gpxtpx:TrackPointExtension><gpxtpx:hr>173</gpxtpx:hr></gpxtpx:TrackPointExtension></extensions>
      </trkpt>
      <trkpt lat="59.9839262" lon="15.8267434">
        <ele>76.5621</ele>
        <time>2012-04-04T21:55:10Z</time>
        <extensions><gpxtpx:TrackPointExtension><gpxtpx:hr>173</gpxtpx:hr></gpxtpx:TrackPointExtension></extensions>
      </trkpt>
      <trkpt lat="59.9840163" lon="15.8265758">
        <ele>74.6395</ele>
        <time>2012-04-04T21:55:15Z</time>
        <extensions><gpxtpx:TrackPointExtension><gpxtpx:hr>172</gpxtpx:hr></gpxtpx:TrackPointExtension></extensions>
      </trkpt>
      <trkpt lat="59.9841621" lon="15.8265732">
        <ele>76.5621</ele>
        <time>2012-04-04T21:55:20Z</time>
        <extensions><gpxtpx:TrackPointExtension><gpxtpx:hr>173</gpxtpx:hr></gpxtpx:TrackPointExtension></extensions>
      </trkpt>
      <trkpt lat="59.9842896" lon="15.8267293">
        <ele>78.9655</ele>
        <time>2012-04-04T21:55:25Z</time>
        <extensions><gpxtpx:TrackPointExtension><gpxtpx:hr>173</gpxtpx:hr></gpxtpx:TrackPointExtension></extensions>
      </trkpt>
      <trkpt lat="59.9844586" lon="15.8269991">
        <ele>83.2914</ele>
        <time>2012-04-04T21:55:32Z</time>
        <extensions><gpxtpx:TrackPointExtension><gpxtpx:hr>173</gpxtpx:hr></gpxtpx:TrackPointExtension></extensions>
      </trkpt>
      <trkpt lat="59.9846103" lon="15.8271483">
        <ele>86.656</ele>
        <time>2012-04-04T21:55:38Z</time>
        <extensions><gpxtpx:TrackPointExtension><gpxtpx:hr>174</gpxtpx:hr></gpxtpx:TrackPointExtension></extensions>
      </trkpt>
      <trkpt lat="59.9847715" lon="15.8272531">
        <ele>88.098</ele>
        <time>2012-04-04T21:55:44Z</time>
        <extensions><gpxtpx:TrackPointExtension><gpxtpx:hr>174</gpxtpx:hr></gpxtpx:TrackPointExtension></extensions>
      </trkpt>
      <trkpt lat="59.9848748" lon="15.8273796">
        <ele>89.5399</ele>
        <time>2012-04-04T21:55:49Z</time>
        <extensions><gpxtpx:TrackPointExtension><gpxtpx:hr>175</gpxtpx:hr></gpxtpx:TrackPointExtension></extensions>
      </trkpt>
      <trkpt lat="59.9848574" lon="15.8276581">
        <ele>90.5013</ele>
        <time>2012-04-04T21:55:55Z</time>
        <extensions><gpxtpx:TrackPointExtension><gpxtpx:hr>175</gpxtpx:hr></gpxtpx:TrackPointExtension></extensions>
      </trkpt>
    </trkseg>
  </trk>
</gpx>